<?xml version="1.0" encoding="UTF-8" standalone="no" ?>
<gpx xmlns="http://www.topografix.com/GPX/1/1" xmlns:xsi="http://www.w3.org/2001/XMLSchema-instance" xsi:schemaLocation="http://www.topografix.com/GPX/1/1 http://www.topografix.com/GPX/1/1/gpx.xsd" version="1.1" creator="VisuGPX - https://www.visugpx.com">
  <metadata>
    <name>43-Séjour Hte Loire-St Julien des Chazes</name>
    <desc><![CDATA[43-Séjour Hte Loire-St Julien des Chazes-08-06-2018]]></desc>
  </metadata>
  <trk>
    <name><![CDATA[2018-06-08-S-St Julien des Chazes]]></name>
    <trkseg>
      <trkpt lat="45.04722" lon="3.58407">
        <ele>532.5</ele>
        <time>2018-06-08T07:13:13Z</time>
      </trkpt>
      <trkpt lat="45.04709" lon="3.58403">
        <ele>532.5</ele>
        <time>2018-06-08T07:13:49Z</time>
      </trkpt>
      <trkpt lat="45.047" lon="3.58408">
        <ele>532.7</ele>
        <time>2018-06-08T07:14:00Z</time>
      </trkpt>
      <trkpt lat="45.04691" lon="3.58407">
        <ele>533.1</ele>
        <time>2018-06-08T07:14:08Z</time>
      </trkpt>
      <trkpt lat="45.04681" lon="3.58407">
        <ele>533.6</ele>
        <time>2018-06-08T07:14:17Z</time>
      </trkpt>
      <trkpt lat="45.04667" lon="3.58415">
        <ele>536.7</ele>
        <time>2018-06-08T07:18:47Z</time>
      </trkpt>
      <trkpt lat="45.04663" lon="3.58427">
        <ele>537</ele>
        <time>2018-06-08T07:18:56Z</time>
      </trkpt>
      <trkpt lat="45.04655" lon="3.58434">
        <ele>537.5</ele>
        <time>2018-06-08T07:19:06Z</time>
      </trkpt>
      <trkpt lat="45.04634" lon="3.58448">
        <ele>541</ele>
        <time>2018-06-08T07:20:50Z</time>
      </trkpt>
      <trkpt lat="45.04626" lon="3.58441">
        <ele>543.4</ele>
        <time>2018-06-08T07:21:05Z</time>
      </trkpt>
      <trkpt lat="45.04617" lon="3.58441">
        <ele>546.5</ele>
        <time>2018-06-08T07:21:27Z</time>
      </trkpt>
      <trkpt lat="45.04615" lon="3.58453">
        <ele>547.9</ele>
        <time>2018-06-08T07:21:37Z</time>
      </trkpt>
      <trkpt lat="45.0461" lon="3.58465">
        <ele>549.5</ele>
        <time>2018-06-08T07:21:48Z</time>
      </trkpt>
      <trkpt lat="45.04603" lon="3.58474">
        <ele>551</ele>
        <time>2018-06-08T07:21:59Z</time>
      </trkpt>
      <trkpt lat="45.04594" lon="3.58475">
        <ele>552.6</ele>
        <time>2018-06-08T07:22:12Z</time>
      </trkpt>
      <trkpt lat="45.04585" lon="3.58479">
        <ele>554.1</ele>
        <time>2018-06-08T07:22:26Z</time>
      </trkpt>
      <trkpt lat="45.04568" lon="3.58488">
        <ele>559</ele>
        <time>2018-06-08T07:23:08Z</time>
      </trkpt>
      <trkpt lat="45.04558" lon="3.58492">
        <ele>563.4</ele>
        <time>2018-06-08T07:23:38Z</time>
      </trkpt>
      <trkpt lat="45.04549" lon="3.58497">
        <ele>565.2</ele>
        <time>2018-06-08T07:23:52Z</time>
      </trkpt>
      <trkpt lat="45.0454" lon="3.58501">
        <ele>568.2</ele>
        <time>2018-06-08T07:24:11Z</time>
      </trkpt>
      <trkpt lat="45.04534" lon="3.5851">
        <ele>570.1</ele>
        <time>2018-06-08T07:24:26Z</time>
      </trkpt>
      <trkpt lat="45.04525" lon="3.58516">
        <ele>572.6</ele>
        <time>2018-06-08T07:24:45Z</time>
      </trkpt>
      <trkpt lat="45.04517" lon="3.58523">
        <ele>574.1</ele>
        <time>2018-06-08T07:24:57Z</time>
      </trkpt>
      <trkpt lat="45.0451" lon="3.58531">
        <ele>576.1</ele>
        <time>2018-06-08T07:25:13Z</time>
      </trkpt>
      <trkpt lat="45.04503" lon="3.58541">
        <ele>578.2</ele>
        <time>2018-06-08T07:25:29Z</time>
      </trkpt>
      <trkpt lat="45.04496" lon="3.5855">
        <ele>580</ele>
        <time>2018-06-08T07:25:43Z</time>
      </trkpt>
      <trkpt lat="45.04488" lon="3.58567">
        <ele>583.3</ele>
        <time>2018-06-08T07:26:07Z</time>
      </trkpt>
      <trkpt lat="45.04481" lon="3.58575">
        <ele>584.6</ele>
        <time>2018-06-08T07:26:17Z</time>
      </trkpt>
      <trkpt lat="45.04475" lon="3.58584">
        <ele>587.6</ele>
        <time>2018-06-08T07:26:40Z</time>
      </trkpt>
      <trkpt lat="45.04469" lon="3.58595">
        <ele>589.3</ele>
        <time>2018-06-08T07:26:55Z</time>
      </trkpt>
      <trkpt lat="45.04466" lon="3.58607">
        <ele>590.9</ele>
        <time>2018-06-08T07:27:07Z</time>
      </trkpt>
      <trkpt lat="45.0446" lon="3.58618">
        <ele>591.8</ele>
        <time>2018-06-08T07:27:16Z</time>
      </trkpt>
      <trkpt lat="45.04453" lon="3.58627">
        <ele>593.3</ele>
        <time>2018-06-08T07:27:29Z</time>
      </trkpt>
      <trkpt lat="45.04449" lon="3.58639">
        <ele>594.8</ele>
        <time>2018-06-08T07:27:42Z</time>
      </trkpt>
      <trkpt lat="45.04446" lon="3.58652">
        <ele>596.5</ele>
        <time>2018-06-08T07:27:55Z</time>
      </trkpt>
      <trkpt lat="45.04443" lon="3.58664">
        <ele>597.8</ele>
        <time>2018-06-08T07:28:06Z</time>
      </trkpt>
      <trkpt lat="45.0444" lon="3.58677">
        <ele>598.7</ele>
        <time>2018-06-08T07:28:14Z</time>
      </trkpt>
      <trkpt lat="45.04437" lon="3.58689">
        <ele>599.4</ele>
        <time>2018-06-08T07:28:22Z</time>
      </trkpt>
      <trkpt lat="45.04436" lon="3.58702">
        <ele>600.4</ele>
        <time>2018-06-08T07:28:32Z</time>
      </trkpt>
      <trkpt lat="45.04433" lon="3.58715">
        <ele>601.1</ele>
        <time>2018-06-08T07:28:41Z</time>
      </trkpt>
      <trkpt lat="45.04429" lon="3.58729">
        <ele>601.8</ele>
        <time>2018-06-08T07:28:50Z</time>
      </trkpt>
      <trkpt lat="45.04427" lon="3.58742">
        <ele>603.1</ele>
        <time>2018-06-08T07:29:05Z</time>
      </trkpt>
      <trkpt lat="45.04422" lon="3.58753">
        <ele>604.9</ele>
        <time>2018-06-08T07:29:22Z</time>
      </trkpt>
      <trkpt lat="45.04417" lon="3.58765">
        <ele>606.8</ele>
        <time>2018-06-08T07:29:37Z</time>
      </trkpt>
      <trkpt lat="45.04413" lon="3.58776">
        <ele>608.3</ele>
        <time>2018-06-08T07:29:48Z</time>
      </trkpt>
      <trkpt lat="45.04411" lon="3.58789">
        <ele>609.8</ele>
        <time>2018-06-08T07:30:00Z</time>
      </trkpt>
      <trkpt lat="45.04409" lon="3.58801">
        <ele>611.5</ele>
        <time>2018-06-08T07:30:13Z</time>
      </trkpt>
      <trkpt lat="45.04406" lon="3.58814">
        <ele>613.6</ele>
        <time>2018-06-08T07:30:28Z</time>
      </trkpt>
      <trkpt lat="45.04402" lon="3.58826">
        <ele>614.8</ele>
        <time>2018-06-08T07:30:38Z</time>
      </trkpt>
      <trkpt lat="45.04398" lon="3.58839">
        <ele>617.1</ele>
        <time>2018-06-08T07:30:57Z</time>
      </trkpt>
      <trkpt lat="45.04394" lon="3.58851">
        <ele>618.6</ele>
        <time>2018-06-08T07:31:12Z</time>
      </trkpt>
      <trkpt lat="45.04389" lon="3.58862">
        <ele>620.2</ele>
        <time>2018-06-08T07:31:27Z</time>
      </trkpt>
      <trkpt lat="45.04381" lon="3.58866">
        <ele>621.8</ele>
        <time>2018-06-08T07:31:41Z</time>
      </trkpt>
      <trkpt lat="45.04377" lon="3.58853">
        <ele>623.7</ele>
        <time>2018-06-08T07:31:59Z</time>
      </trkpt>
      <trkpt lat="45.04377" lon="3.5884">
        <ele>625.4</ele>
        <time>2018-06-08T07:32:14Z</time>
      </trkpt>
      <trkpt lat="45.04374" lon="3.58828">
        <ele>627.1</ele>
        <time>2018-06-08T07:32:27Z</time>
      </trkpt>
      <trkpt lat="45.04371" lon="3.58815">
        <ele>628.8</ele>
        <time>2018-06-08T07:32:40Z</time>
      </trkpt>
      <trkpt lat="45.04365" lon="3.58805">
        <ele>631</ele>
        <time>2018-06-08T07:33:00Z</time>
      </trkpt>
      <trkpt lat="45.04369" lon="3.58788">
        <ele>633</ele>
        <time>2018-06-08T07:38:42Z</time>
      </trkpt>
      <trkpt lat="45.04364" lon="3.58778">
        <ele>633.4</ele>
        <time>2018-06-08T07:38:55Z</time>
      </trkpt>
      <trkpt lat="45.04361" lon="3.58765">
        <ele>634.1</ele>
        <time>2018-06-08T07:39:08Z</time>
      </trkpt>
      <trkpt lat="45.04354" lon="3.58753">
        <ele>636</ele>
        <time>2018-06-08T07:39:27Z</time>
      </trkpt>
      <trkpt lat="45.04349" lon="3.58743">
        <ele>637.2</ele>
        <time>2018-06-08T07:39:40Z</time>
      </trkpt>
      <trkpt lat="45.04343" lon="3.58732">
        <ele>638.9</ele>
        <time>2018-06-08T07:39:54Z</time>
      </trkpt>
      <trkpt lat="45.04338" lon="3.58721">
        <ele>640.8</ele>
        <time>2018-06-08T07:40:11Z</time>
      </trkpt>
      <trkpt lat="45.04329" lon="3.58717">
        <ele>643.7</ele>
        <time>2018-06-08T07:40:33Z</time>
      </trkpt>
      <trkpt lat="45.04324" lon="3.58728">
        <ele>645.7</ele>
        <time>2018-06-08T07:40:49Z</time>
      </trkpt>
      <trkpt lat="45.04319" lon="3.58739">
        <ele>647.7</ele>
        <time>2018-06-08T07:41:04Z</time>
      </trkpt>
      <trkpt lat="45.04314" lon="3.58751">
        <ele>649.5</ele>
        <time>2018-06-08T07:41:18Z</time>
      </trkpt>
      <trkpt lat="45.04313" lon="3.58764">
        <ele>651.4</ele>
        <time>2018-06-08T07:41:33Z</time>
      </trkpt>
      <trkpt lat="45.04305" lon="3.58759">
        <ele>653.4</ele>
        <time>2018-06-08T07:41:50Z</time>
      </trkpt>
      <trkpt lat="45.04302" lon="3.58746">
        <ele>655</ele>
        <time>2018-06-08T07:42:04Z</time>
      </trkpt>
      <trkpt lat="45.043" lon="3.58734">
        <ele>655.9</ele>
        <time>2018-06-08T07:42:15Z</time>
      </trkpt>
      <trkpt lat="45.04298" lon="3.58721">
        <ele>658.4</ele>
        <time>2018-06-08T07:44:50Z</time>
      </trkpt>
      <trkpt lat="45.04297" lon="3.58708">
        <ele>658.5</ele>
        <time>2018-06-08T07:45:06Z</time>
      </trkpt>
      <trkpt lat="45.04296" lon="3.58695">
        <ele>658.5</ele>
        <time>2018-06-08T07:45:18Z</time>
      </trkpt>
      <trkpt lat="45.04294" lon="3.58682">
        <ele>658.6</ele>
        <time>2018-06-08T07:45:30Z</time>
      </trkpt>
      <trkpt lat="45.04292" lon="3.58669">
        <ele>658.6</ele>
        <time>2018-06-08T07:45:40Z</time>
      </trkpt>
      <trkpt lat="45.0429" lon="3.58656">
        <ele>658.6</ele>
        <time>2018-06-08T07:45:53Z</time>
      </trkpt>
      <trkpt lat="45.0429" lon="3.58642">
        <ele>658.7</ele>
        <time>2018-06-08T07:46:04Z</time>
      </trkpt>
      <trkpt lat="45.04288" lon="3.58628">
        <ele>658.9</ele>
        <time>2018-06-08T07:46:16Z</time>
      </trkpt>
      <trkpt lat="45.04287" lon="3.58615">
        <ele>659.1</ele>
        <time>2018-06-08T07:46:28Z</time>
      </trkpt>
      <trkpt lat="45.04285" lon="3.58602">
        <ele>659.3</ele>
        <time>2018-06-08T07:46:36Z</time>
      </trkpt>
      <trkpt lat="45.04282" lon="3.58589">
        <ele>659.6</ele>
        <time>2018-06-08T07:46:45Z</time>
      </trkpt>
      <trkpt lat="45.0428" lon="3.58575">
        <ele>660.1</ele>
        <time>2018-06-08T07:46:55Z</time>
      </trkpt>
      <trkpt lat="45.04278" lon="3.58562">
        <ele>660.4</ele>
        <time>2018-06-08T07:47:03Z</time>
      </trkpt>
      <trkpt lat="45.04276" lon="3.58549">
        <ele>660.7</ele>
        <time>2018-06-08T07:47:12Z</time>
      </trkpt>
      <trkpt lat="45.04274" lon="3.58536">
        <ele>661.1</ele>
        <time>2018-06-08T07:47:22Z</time>
      </trkpt>
      <trkpt lat="45.04275" lon="3.58523">
        <ele>661.7</ele>
        <time>2018-06-08T07:47:32Z</time>
      </trkpt>
      <trkpt lat="45.04277" lon="3.5851">
        <ele>662.4</ele>
        <time>2018-06-08T07:47:42Z</time>
      </trkpt>
      <trkpt lat="45.0428" lon="3.58498">
        <ele>663.4</ele>
        <time>2018-06-08T07:47:53Z</time>
      </trkpt>
      <trkpt lat="45.04286" lon="3.58487">
        <ele>664.6</ele>
        <time>2018-06-08T07:48:04Z</time>
      </trkpt>
      <trkpt lat="45.04292" lon="3.58476">
        <ele>665.6</ele>
        <time>2018-06-08T07:48:14Z</time>
      </trkpt>
      <trkpt lat="45.04297" lon="3.58464">
        <ele>667.2</ele>
        <time>2018-06-08T07:48:27Z</time>
      </trkpt>
      <trkpt lat="45.043" lon="3.58451">
        <ele>669.2</ele>
        <time>2018-06-08T07:48:41Z</time>
      </trkpt>
      <trkpt lat="45.04298" lon="3.58439">
        <ele>671.4</ele>
        <time>2018-06-08T07:48:56Z</time>
      </trkpt>
      <trkpt lat="45.04292" lon="3.58428">
        <ele>673.7</ele>
        <time>2018-06-08T07:49:11Z</time>
      </trkpt>
      <trkpt lat="45.04285" lon="3.58419">
        <ele>675.7</ele>
        <time>2018-06-08T07:49:24Z</time>
      </trkpt>
      <trkpt lat="45.04277" lon="3.58414">
        <ele>677.4</ele>
        <time>2018-06-08T07:49:36Z</time>
      </trkpt>
      <trkpt lat="45.04268" lon="3.58409">
        <ele>679</ele>
        <time>2018-06-08T07:49:48Z</time>
      </trkpt>
      <trkpt lat="45.04266" lon="3.58397">
        <ele>681.3</ele>
        <time>2018-06-08T07:50:08Z</time>
      </trkpt>
      <trkpt lat="45.04273" lon="3.58387">
        <ele>682.6</ele>
        <time>2018-06-08T07:50:26Z</time>
      </trkpt>
      <trkpt lat="45.04279" lon="3.58375">
        <ele>683.4</ele>
        <time>2018-06-08T07:50:37Z</time>
      </trkpt>
      <trkpt lat="45.04284" lon="3.58365">
        <ele>684.3</ele>
        <time>2018-06-08T07:50:47Z</time>
      </trkpt>
      <trkpt lat="45.0429" lon="3.58354">
        <ele>685</ele>
        <time>2018-06-08T07:50:58Z</time>
      </trkpt>
      <trkpt lat="45.04292" lon="3.58342">
        <ele>685.9</ele>
        <time>2018-06-08T07:51:07Z</time>
      </trkpt>
      <trkpt lat="45.04291" lon="3.58329">
        <ele>686.9</ele>
        <time>2018-06-08T07:51:17Z</time>
      </trkpt>
      <trkpt lat="45.04289" lon="3.58316">
        <ele>688.5</ele>
        <time>2018-06-08T07:51:29Z</time>
      </trkpt>
      <trkpt lat="45.04282" lon="3.58306">
        <ele>692.7</ele>
        <time>2018-06-08T07:52:38Z</time>
      </trkpt>
      <trkpt lat="45.04278" lon="3.58294">
        <ele>693.2</ele>
        <time>2018-06-08T07:52:50Z</time>
      </trkpt>
      <trkpt lat="45.04273" lon="3.58283">
        <ele>693.8</ele>
        <time>2018-06-08T07:53:01Z</time>
      </trkpt>
      <trkpt lat="45.0427" lon="3.58271">
        <ele>694.6</ele>
        <time>2018-06-08T07:53:12Z</time>
      </trkpt>
      <trkpt lat="45.04267" lon="3.58258">
        <ele>695.5</ele>
        <time>2018-06-08T07:53:23Z</time>
      </trkpt>
      <trkpt lat="45.04262" lon="3.58246">
        <ele>696.5</ele>
        <time>2018-06-08T07:53:34Z</time>
      </trkpt>
      <trkpt lat="45.04257" lon="3.58234">
        <ele>697.5</ele>
        <time>2018-06-08T07:53:44Z</time>
      </trkpt>
      <trkpt lat="45.04253" lon="3.58222">
        <ele>698.3</ele>
        <time>2018-06-08T07:53:55Z</time>
      </trkpt>
      <trkpt lat="45.04249" lon="3.5821">
        <ele>699.3</ele>
        <time>2018-06-08T07:54:08Z</time>
      </trkpt>
      <trkpt lat="45.04246" lon="3.58197">
        <ele>699.8</ele>
        <time>2018-06-08T07:54:18Z</time>
      </trkpt>
      <trkpt lat="45.04241" lon="3.58185">
        <ele>700.6</ele>
        <time>2018-06-08T07:54:28Z</time>
      </trkpt>
      <trkpt lat="45.04238" lon="3.58174">
        <ele>701.4</ele>
        <time>2018-06-08T07:54:38Z</time>
      </trkpt>
      <trkpt lat="45.04235" lon="3.58161">
        <ele>702.3</ele>
        <time>2018-06-08T07:54:49Z</time>
      </trkpt>
      <trkpt lat="45.04231" lon="3.58148">
        <ele>703.2</ele>
        <time>2018-06-08T07:54:59Z</time>
      </trkpt>
      <trkpt lat="45.04228" lon="3.58135">
        <ele>704.3</ele>
        <time>2018-06-08T07:55:10Z</time>
      </trkpt>
      <trkpt lat="45.04223" lon="3.58123">
        <ele>705.9</ele>
        <time>2018-06-08T07:55:26Z</time>
      </trkpt>
      <trkpt lat="45.04221" lon="3.58111">
        <ele>707</ele>
        <time>2018-06-08T07:55:36Z</time>
      </trkpt>
      <trkpt lat="45.04215" lon="3.58101">
        <ele>708.1</ele>
        <time>2018-06-08T07:55:46Z</time>
      </trkpt>
      <trkpt lat="45.0421" lon="3.5809">
        <ele>709.4</ele>
        <time>2018-06-08T07:55:56Z</time>
      </trkpt>
      <trkpt lat="45.04206" lon="3.58077">
        <ele>711.1</ele>
        <time>2018-06-08T07:56:08Z</time>
      </trkpt>
      <trkpt lat="45.04202" lon="3.58065">
        <ele>712.9</ele>
        <time>2018-06-08T07:56:21Z</time>
      </trkpt>
      <trkpt lat="45.04197" lon="3.58054">
        <ele>714.4</ele>
        <time>2018-06-08T07:56:32Z</time>
      </trkpt>
      <trkpt lat="45.04193" lon="3.58042">
        <ele>716.3</ele>
        <time>2018-06-08T07:56:45Z</time>
      </trkpt>
      <trkpt lat="45.04187" lon="3.58032">
        <ele>717.6</ele>
        <time>2018-06-08T07:56:55Z</time>
      </trkpt>
      <trkpt lat="45.04182" lon="3.58021">
        <ele>718.9</ele>
        <time>2018-06-08T07:57:06Z</time>
      </trkpt>
      <trkpt lat="45.04176" lon="3.58012">
        <ele>720.4</ele>
        <time>2018-06-08T07:57:17Z</time>
      </trkpt>
      <trkpt lat="45.04168" lon="3.58004">
        <ele>721.9</ele>
        <time>2018-06-08T07:57:27Z</time>
      </trkpt>
      <trkpt lat="45.04161" lon="3.57995">
        <ele>723.5</ele>
        <time>2018-06-08T07:57:39Z</time>
      </trkpt>
      <trkpt lat="45.04156" lon="3.57983">
        <ele>724.9</ele>
        <time>2018-06-08T07:57:50Z</time>
      </trkpt>
      <trkpt lat="45.04149" lon="3.57973">
        <ele>726.2</ele>
        <time>2018-06-08T07:58:01Z</time>
      </trkpt>
      <trkpt lat="45.04144" lon="3.57963">
        <ele>727.4</ele>
        <time>2018-06-08T07:58:11Z</time>
      </trkpt>
      <trkpt lat="45.04141" lon="3.5795">
        <ele>728.8</ele>
        <time>2018-06-08T07:58:22Z</time>
      </trkpt>
      <trkpt lat="45.0414" lon="3.57937">
        <ele>730.3</ele>
        <time>2018-06-08T07:58:34Z</time>
      </trkpt>
      <trkpt lat="45.04135" lon="3.57924">
        <ele>731.8</ele>
        <time>2018-06-08T07:58:46Z</time>
      </trkpt>
      <trkpt lat="45.0413" lon="3.57913">
        <ele>732.9</ele>
        <time>2018-06-08T07:58:54Z</time>
      </trkpt>
      <trkpt lat="45.04125" lon="3.57903">
        <ele>734</ele>
        <time>2018-06-08T07:59:03Z</time>
      </trkpt>
      <trkpt lat="45.04119" lon="3.57892">
        <ele>735.6</ele>
        <time>2018-06-08T07:59:15Z</time>
      </trkpt>
      <trkpt lat="45.04111" lon="3.57884">
        <ele>737.1</ele>
        <time>2018-06-08T07:59:27Z</time>
      </trkpt>
      <trkpt lat="45.04101" lon="3.57882">
        <ele>739</ele>
        <time>2018-06-08T07:59:40Z</time>
      </trkpt>
      <trkpt lat="45.04094" lon="3.57874">
        <ele>740.5</ele>
        <time>2018-06-08T07:59:51Z</time>
      </trkpt>
      <trkpt lat="45.04096" lon="3.57861">
        <ele>743.1</ele>
        <time>2018-06-08T08:00:07Z</time>
      </trkpt>
      <trkpt lat="45.04104" lon="3.57853">
        <ele>745.1</ele>
        <time>2018-06-08T08:00:20Z</time>
      </trkpt>
      <trkpt lat="45.04104" lon="3.57839">
        <ele>747.1</ele>
        <time>2018-06-08T08:00:33Z</time>
      </trkpt>
      <trkpt lat="45.041" lon="3.57828">
        <ele>749</ele>
        <time>2018-06-08T08:00:45Z</time>
      </trkpt>
      <trkpt lat="45.04096" lon="3.57816">
        <ele>751.4</ele>
        <time>2018-06-08T08:01:01Z</time>
      </trkpt>
      <trkpt lat="45.04086" lon="3.57814">
        <ele>754.3</ele>
        <time>2018-06-08T08:01:19Z</time>
      </trkpt>
      <trkpt lat="45.04078" lon="3.5782">
        <ele>755.8</ele>
        <time>2018-06-08T08:01:30Z</time>
      </trkpt>
      <trkpt lat="45.04072" lon="3.57829">
        <ele>757.5</ele>
        <time>2018-06-08T08:02:56Z</time>
      </trkpt>
      <trkpt lat="45.0407" lon="3.57817">
        <ele>758.5</ele>
        <time>2018-06-08T08:05:03Z</time>
      </trkpt>
      <trkpt lat="45.04075" lon="3.57806">
        <ele>758.5</ele>
        <time>2018-06-08T08:05:15Z</time>
      </trkpt>
      <trkpt lat="45.04077" lon="3.57792">
        <ele>759</ele>
        <time>2018-06-08T08:11:11Z</time>
      </trkpt>
      <trkpt lat="45.04067" lon="3.57794">
        <ele>759</ele>
        <time>2018-06-08T08:11:28Z</time>
      </trkpt>
      <trkpt lat="45.04059" lon="3.578">
        <ele>759</ele>
        <time>2018-06-08T08:11:37Z</time>
      </trkpt>
      <trkpt lat="45.0405" lon="3.57802">
        <ele>759.9</ele>
        <time>2018-06-08T08:11:49Z</time>
      </trkpt>
      <trkpt lat="45.04042" lon="3.57794">
        <ele>761.7</ele>
        <time>2018-06-08T08:12:07Z</time>
      </trkpt>
      <trkpt lat="45.04042" lon="3.57781">
        <ele>762.6</ele>
        <time>2018-06-08T08:12:13Z</time>
      </trkpt>
      <trkpt lat="45.04035" lon="3.57772">
        <ele>764.6</ele>
        <time>2018-06-08T08:12:26Z</time>
      </trkpt>
      <trkpt lat="45.04027" lon="3.57765">
        <ele>766.6</ele>
        <time>2018-06-08T08:12:39Z</time>
      </trkpt>
      <trkpt lat="45.04018" lon="3.57767">
        <ele>768.1</ele>
        <time>2018-06-08T08:12:50Z</time>
      </trkpt>
      <trkpt lat="45.04008" lon="3.57766">
        <ele>769.6</ele>
        <time>2018-06-08T08:13:02Z</time>
      </trkpt>
      <trkpt lat="45.03999" lon="3.5776">
        <ele>771.4</ele>
        <time>2018-06-08T08:13:15Z</time>
      </trkpt>
      <trkpt lat="45.0399" lon="3.5776">
        <ele>773.1</ele>
        <time>2018-06-08T08:13:28Z</time>
      </trkpt>
      <trkpt lat="45.0398" lon="3.57762">
        <ele>774.8</ele>
        <time>2018-06-08T08:13:39Z</time>
      </trkpt>
      <trkpt lat="45.03971" lon="3.57764">
        <ele>776.5</ele>
        <time>2018-06-08T08:13:52Z</time>
      </trkpt>
      <trkpt lat="45.03964" lon="3.57755">
        <ele>778.6</ele>
        <time>2018-06-08T08:14:05Z</time>
      </trkpt>
      <trkpt lat="45.03962" lon="3.57743">
        <ele>780.2</ele>
        <time>2018-06-08T08:14:16Z</time>
      </trkpt>
      <trkpt lat="45.03969" lon="3.57734">
        <ele>782.9</ele>
        <time>2018-06-08T08:14:33Z</time>
      </trkpt>
      <trkpt lat="45.03974" lon="3.57724">
        <ele>784.9</ele>
        <time>2018-06-08T08:14:45Z</time>
      </trkpt>
      <trkpt lat="45.03982" lon="3.57717">
        <ele>786.7</ele>
        <time>2018-06-08T08:14:58Z</time>
      </trkpt>
      <trkpt lat="45.03989" lon="3.57707">
        <ele>788.8</ele>
        <time>2018-06-08T08:15:12Z</time>
      </trkpt>
      <trkpt lat="45.03993" lon="3.57695">
        <ele>790.6</ele>
        <time>2018-06-08T08:15:25Z</time>
      </trkpt>
      <trkpt lat="45.03997" lon="3.57683">
        <ele>792.4</ele>
        <time>2018-06-08T08:15:38Z</time>
      </trkpt>
      <trkpt lat="45.0399" lon="3.57674">
        <ele>793.8</ele>
        <time>2018-06-08T08:15:48Z</time>
      </trkpt>
      <trkpt lat="45.03982" lon="3.57667">
        <ele>795.5</ele>
        <time>2018-06-08T08:15:59Z</time>
      </trkpt>
      <trkpt lat="45.03973" lon="3.57666">
        <ele>797.5</ele>
        <time>2018-06-08T08:16:11Z</time>
      </trkpt>
      <trkpt lat="45.03963" lon="3.57667">
        <ele>799.6</ele>
        <time>2018-06-08T08:16:25Z</time>
      </trkpt>
      <trkpt lat="45.03955" lon="3.57663">
        <ele>801.8</ele>
        <time>2018-06-08T08:16:41Z</time>
      </trkpt>
      <trkpt lat="45.03946" lon="3.57658">
        <ele>803.6</ele>
        <time>2018-06-08T08:16:53Z</time>
      </trkpt>
      <trkpt lat="45.03937" lon="3.57655">
        <ele>804.8</ele>
        <time>2018-06-08T08:17:01Z</time>
      </trkpt>
      <trkpt lat="45.03927" lon="3.57657">
        <ele>805.9</ele>
        <time>2018-06-08T08:17:09Z</time>
      </trkpt>
      <trkpt lat="45.03918" lon="3.57659">
        <ele>806.8</ele>
        <time>2018-06-08T08:17:15Z</time>
      </trkpt>
      <trkpt lat="45.03908" lon="3.57659">
        <ele>808.6</ele>
        <time>2018-06-08T08:17:28Z</time>
      </trkpt>
      <trkpt lat="45.03899" lon="3.57663">
        <ele>810.1</ele>
        <time>2018-06-08T08:17:39Z</time>
      </trkpt>
      <trkpt lat="45.0389" lon="3.57666">
        <ele>811.8</ele>
        <time>2018-06-08T08:17:52Z</time>
      </trkpt>
      <trkpt lat="45.03882" lon="3.57673">
        <ele>812.8</ele>
        <time>2018-06-08T08:18:01Z</time>
      </trkpt>
      <trkpt lat="45.03875" lon="3.57683">
        <ele>814.1</ele>
        <time>2018-06-08T08:18:12Z</time>
      </trkpt>
      <trkpt lat="45.03866" lon="3.57684">
        <ele>815.8</ele>
        <time>2018-06-08T08:18:25Z</time>
      </trkpt>
      <trkpt lat="45.03857" lon="3.57677">
        <ele>816.9</ele>
        <time>2018-06-08T08:18:34Z</time>
      </trkpt>
      <trkpt lat="45.03848" lon="3.57682">
        <ele>818.3</ele>
        <time>2018-06-08T08:18:44Z</time>
      </trkpt>
      <trkpt lat="45.03839" lon="3.57686">
        <ele>820.1</ele>
        <time>2018-06-08T08:18:55Z</time>
      </trkpt>
      <trkpt lat="45.03829" lon="3.5769">
        <ele>821.6</ele>
        <time>2018-06-08T08:19:04Z</time>
      </trkpt>
      <trkpt lat="45.0382" lon="3.57686">
        <ele>823.9</ele>
        <time>2018-06-08T08:19:19Z</time>
      </trkpt>
      <trkpt lat="45.03812" lon="3.5768">
        <ele>826.9</ele>
        <time>2018-06-08T08:19:36Z</time>
      </trkpt>
      <trkpt lat="45.03805" lon="3.57673">
        <ele>829.4</ele>
        <time>2018-06-08T08:19:52Z</time>
      </trkpt>
      <trkpt lat="45.03801" lon="3.57656">
        <ele>833.1</ele>
        <time>2018-06-08T08:25:09Z</time>
      </trkpt>
      <trkpt lat="45.03791" lon="3.57653">
        <ele>833.1</ele>
        <time>2018-06-08T08:26:06Z</time>
      </trkpt>
      <trkpt lat="45.03783" lon="3.57646">
        <ele>833.3</ele>
        <time>2018-06-08T08:26:15Z</time>
      </trkpt>
      <trkpt lat="45.03775" lon="3.57638">
        <ele>833.7</ele>
        <time>2018-06-08T08:26:24Z</time>
      </trkpt>
      <trkpt lat="45.03767" lon="3.5763">
        <ele>834.2</ele>
        <time>2018-06-08T08:26:33Z</time>
      </trkpt>
      <trkpt lat="45.03759" lon="3.57623">
        <ele>834.7</ele>
        <time>2018-06-08T08:26:42Z</time>
      </trkpt>
      <trkpt lat="45.03752" lon="3.57614">
        <ele>835.4</ele>
        <time>2018-06-08T08:26:51Z</time>
      </trkpt>
      <trkpt lat="45.03745" lon="3.57604">
        <ele>836.3</ele>
        <time>2018-06-08T08:27:01Z</time>
      </trkpt>
      <trkpt lat="45.03741" lon="3.57593">
        <ele>837.5</ele>
        <time>2018-06-08T08:27:13Z</time>
      </trkpt>
      <trkpt lat="45.03738" lon="3.57579">
        <ele>838.6</ele>
        <time>2018-06-08T08:27:26Z</time>
      </trkpt>
      <trkpt lat="45.03734" lon="3.57567">
        <ele>840.1</ele>
        <time>2018-06-08T08:27:38Z</time>
      </trkpt>
      <trkpt lat="45.03727" lon="3.57557">
        <ele>841.7</ele>
        <time>2018-06-08T08:27:51Z</time>
      </trkpt>
      <trkpt lat="45.03722" lon="3.57546">
        <ele>843.3</ele>
        <time>2018-06-08T08:28:04Z</time>
      </trkpt>
      <trkpt lat="45.03714" lon="3.57539">
        <ele>844.8</ele>
        <time>2018-06-08T08:28:16Z</time>
      </trkpt>
      <trkpt lat="45.03708" lon="3.57529">
        <ele>846.4</ele>
        <time>2018-06-08T08:28:27Z</time>
      </trkpt>
      <trkpt lat="45.03699" lon="3.57522">
        <ele>847.5</ele>
        <time>2018-06-08T08:28:38Z</time>
      </trkpt>
      <trkpt lat="45.03691" lon="3.57515">
        <ele>849.2</ele>
        <time>2018-06-08T08:28:52Z</time>
      </trkpt>
      <trkpt lat="45.03684" lon="3.57508">
        <ele>850.2</ele>
        <time>2018-06-08T08:29:01Z</time>
      </trkpt>
      <trkpt lat="45.03677" lon="3.57499">
        <ele>851</ele>
        <time>2018-06-08T08:29:10Z</time>
      </trkpt>
      <trkpt lat="45.03673" lon="3.57486">
        <ele>851.5</ele>
        <time>2018-06-08T08:29:21Z</time>
      </trkpt>
      <trkpt lat="45.03669" lon="3.57473">
        <ele>852</ele>
        <time>2018-06-08T08:29:32Z</time>
      </trkpt>
      <trkpt lat="45.03667" lon="3.5746">
        <ele>852.2</ele>
        <time>2018-06-08T08:29:39Z</time>
      </trkpt>
      <trkpt lat="45.03664" lon="3.57448">
        <ele>852.4</ele>
        <time>2018-06-08T08:29:47Z</time>
      </trkpt>
      <trkpt lat="45.03662" lon="3.57435">
        <ele>852.6</ele>
        <time>2018-06-08T08:29:55Z</time>
      </trkpt>
      <trkpt lat="45.03657" lon="3.57423">
        <ele>852.9</ele>
        <time>2018-06-08T08:30:04Z</time>
      </trkpt>
      <trkpt lat="45.03655" lon="3.5741">
        <ele>853.2</ele>
        <time>2018-06-08T08:30:12Z</time>
      </trkpt>
      <trkpt lat="45.03652" lon="3.57398">
        <ele>853.4</ele>
        <time>2018-06-08T08:30:20Z</time>
      </trkpt>
      <trkpt lat="45.03649" lon="3.57384">
        <ele>853.9</ele>
        <time>2018-06-08T08:30:33Z</time>
      </trkpt>
      <trkpt lat="45.03646" lon="3.57371">
        <ele>854.2</ele>
        <time>2018-06-08T08:30:42Z</time>
      </trkpt>
      <trkpt lat="45.03642" lon="3.57359">
        <ele>854.9</ele>
        <time>2018-06-08T08:30:52Z</time>
      </trkpt>
      <trkpt lat="45.0364" lon="3.57347">
        <ele>855.5</ele>
        <time>2018-06-08T08:31:02Z</time>
      </trkpt>
      <trkpt lat="45.03636" lon="3.57334">
        <ele>856.2</ele>
        <time>2018-06-08T08:31:12Z</time>
      </trkpt>
      <trkpt lat="45.03633" lon="3.57322">
        <ele>856.8</ele>
        <time>2018-06-08T08:31:20Z</time>
      </trkpt>
      <trkpt lat="45.03626" lon="3.57312">
        <ele>857.5</ele>
        <time>2018-06-08T08:31:28Z</time>
      </trkpt>
      <trkpt lat="45.03619" lon="3.57303">
        <ele>858.4</ele>
        <time>2018-06-08T08:31:38Z</time>
      </trkpt>
      <trkpt lat="45.03611" lon="3.57296">
        <ele>859.9</ele>
        <time>2018-06-08T08:31:59Z</time>
      </trkpt>
      <trkpt lat="45.03603" lon="3.57303">
        <ele>860.6</ele>
        <time>2018-06-08T08:32:15Z</time>
      </trkpt>
      <trkpt lat="45.03593" lon="3.57307">
        <ele>861.1</ele>
        <time>2018-06-08T08:32:24Z</time>
      </trkpt>
      <trkpt lat="45.03584" lon="3.5731">
        <ele>861.6</ele>
        <time>2018-06-08T08:32:32Z</time>
      </trkpt>
      <trkpt lat="45.03575" lon="3.57311">
        <ele>862.4</ele>
        <time>2018-06-08T08:32:42Z</time>
      </trkpt>
      <trkpt lat="45.03566" lon="3.57313">
        <ele>863.1</ele>
        <time>2018-06-08T08:32:51Z</time>
      </trkpt>
      <trkpt lat="45.03557" lon="3.57316">
        <ele>863.9</ele>
        <time>2018-06-08T08:32:59Z</time>
      </trkpt>
      <trkpt lat="45.03547" lon="3.57318">
        <ele>864.8</ele>
        <time>2018-06-08T08:33:09Z</time>
      </trkpt>
      <trkpt lat="45.03538" lon="3.5732">
        <ele>865.8</ele>
        <time>2018-06-08T08:33:19Z</time>
      </trkpt>
      <trkpt lat="45.03528" lon="3.57324">
        <ele>866.7</ele>
        <time>2018-06-08T08:33:28Z</time>
      </trkpt>
      <trkpt lat="45.03519" lon="3.57327">
        <ele>867.6</ele>
        <time>2018-06-08T08:33:37Z</time>
      </trkpt>
      <trkpt lat="45.0351" lon="3.57329">
        <ele>868.7</ele>
        <time>2018-06-08T08:33:46Z</time>
      </trkpt>
      <trkpt lat="45.035" lon="3.57332">
        <ele>869.8</ele>
        <time>2018-06-08T08:33:54Z</time>
      </trkpt>
      <trkpt lat="45.03491" lon="3.5733">
        <ele>870.8</ele>
        <time>2018-06-08T08:34:03Z</time>
      </trkpt>
      <trkpt lat="45.03481" lon="3.57327">
        <ele>871.6</ele>
        <time>2018-06-08T08:34:12Z</time>
      </trkpt>
      <trkpt lat="45.03472" lon="3.57322">
        <ele>872.3</ele>
        <time>2018-06-08T08:34:21Z</time>
      </trkpt>
      <trkpt lat="45.03463" lon="3.57318">
        <ele>873.1</ele>
        <time>2018-06-08T08:34:29Z</time>
      </trkpt>
      <trkpt lat="45.03454" lon="3.57314">
        <ele>874</ele>
        <time>2018-06-08T08:34:38Z</time>
      </trkpt>
      <trkpt lat="45.03446" lon="3.57307">
        <ele>874.8</ele>
        <time>2018-06-08T08:34:46Z</time>
      </trkpt>
      <trkpt lat="45.0344" lon="3.57297">
        <ele>875.5</ele>
        <time>2018-06-08T08:34:54Z</time>
      </trkpt>
      <trkpt lat="45.03431" lon="3.5729">
        <ele>876.3</ele>
        <time>2018-06-08T08:35:03Z</time>
      </trkpt>
      <trkpt lat="45.03423" lon="3.57283">
        <ele>877</ele>
        <time>2018-06-08T08:35:12Z</time>
      </trkpt>
      <trkpt lat="45.03417" lon="3.57273">
        <ele>877.5</ele>
        <time>2018-06-08T08:35:21Z</time>
      </trkpt>
      <trkpt lat="45.03408" lon="3.57265">
        <ele>877.9</ele>
        <time>2018-06-08T08:35:29Z</time>
      </trkpt>
      <trkpt lat="45.03402" lon="3.57255">
        <ele>878.3</ele>
        <time>2018-06-08T08:35:37Z</time>
      </trkpt>
      <trkpt lat="45.03395" lon="3.57246">
        <ele>878.8</ele>
        <time>2018-06-08T08:35:46Z</time>
      </trkpt>
      <trkpt lat="45.03389" lon="3.57236">
        <ele>879.5</ele>
        <time>2018-06-08T08:35:57Z</time>
      </trkpt>
      <trkpt lat="45.0338" lon="3.57229">
        <ele>880</ele>
        <time>2018-06-08T08:36:05Z</time>
      </trkpt>
      <trkpt lat="45.03371" lon="3.5723">
        <ele>880.4</ele>
        <time>2018-06-08T08:36:14Z</time>
      </trkpt>
      <trkpt lat="45.03362" lon="3.57232">
        <ele>880.9</ele>
        <time>2018-06-08T08:36:23Z</time>
      </trkpt>
      <trkpt lat="45.03355" lon="3.57241">
        <ele>881.4</ele>
        <time>2018-06-08T08:36:31Z</time>
      </trkpt>
      <trkpt lat="45.03346" lon="3.57248">
        <ele>882</ele>
        <time>2018-06-08T08:36:39Z</time>
      </trkpt>
      <trkpt lat="45.03339" lon="3.57257">
        <ele>882.7</ele>
        <time>2018-06-08T08:36:48Z</time>
      </trkpt>
      <trkpt lat="45.03331" lon="3.57265">
        <ele>883.5</ele>
        <time>2018-06-08T08:36:57Z</time>
      </trkpt>
      <trkpt lat="45.03323" lon="3.57272">
        <ele>884.2</ele>
        <time>2018-06-08T08:37:05Z</time>
      </trkpt>
      <trkpt lat="45.03315" lon="3.57279">
        <ele>884.8</ele>
        <time>2018-06-08T08:37:13Z</time>
      </trkpt>
      <trkpt lat="45.03307" lon="3.57287">
        <ele>885.2</ele>
        <time>2018-06-08T08:37:21Z</time>
      </trkpt>
      <trkpt lat="45.033" lon="3.57297">
        <ele>885.7</ele>
        <time>2018-06-08T08:37:30Z</time>
      </trkpt>
      <trkpt lat="45.03294" lon="3.57305">
        <ele>885.9</ele>
        <time>2018-06-08T08:37:39Z</time>
      </trkpt>
      <trkpt lat="45.03286" lon="3.57313">
        <ele>886.2</ele>
        <time>2018-06-08T08:37:48Z</time>
      </trkpt>
      <trkpt lat="45.03279" lon="3.57321">
        <ele>886.4</ele>
        <time>2018-06-08T08:37:57Z</time>
      </trkpt>
      <trkpt lat="45.0327" lon="3.57327">
        <ele>886.5</ele>
        <time>2018-06-08T08:38:03Z</time>
      </trkpt>
      <trkpt lat="45.03263" lon="3.57336">
        <ele>886.8</ele>
        <time>2018-06-08T08:38:12Z</time>
      </trkpt>
      <trkpt lat="45.03256" lon="3.57344">
        <ele>887.2</ele>
        <time>2018-06-08T08:38:20Z</time>
      </trkpt>
      <trkpt lat="45.03247" lon="3.5735">
        <ele>887.7</ele>
        <time>2018-06-08T08:38:30Z</time>
      </trkpt>
      <trkpt lat="45.03238" lon="3.57355">
        <ele>887.9</ele>
        <time>2018-06-08T08:38:38Z</time>
      </trkpt>
      <trkpt lat="45.0323" lon="3.57359">
        <ele>888.2</ele>
        <time>2018-06-08T08:38:47Z</time>
      </trkpt>
      <trkpt lat="45.0322" lon="3.57363">
        <ele>888.9</ele>
        <time>2018-06-08T08:39:20Z</time>
      </trkpt>
      <trkpt lat="45.0321" lon="3.57362">
        <ele>889.6</ele>
        <time>2018-06-08T08:41:36Z</time>
      </trkpt>
      <trkpt lat="45.03201" lon="3.57363">
        <ele>889.6</ele>
        <time>2018-06-08T08:41:45Z</time>
      </trkpt>
      <trkpt lat="45.03191" lon="3.57365">
        <ele>889.6</ele>
        <time>2018-06-08T08:41:54Z</time>
      </trkpt>
      <trkpt lat="45.03182" lon="3.57364">
        <ele>889.7</ele>
        <time>2018-06-08T08:42:04Z</time>
      </trkpt>
      <trkpt lat="45.03173" lon="3.57363">
        <ele>889.9</ele>
        <time>2018-06-08T08:42:14Z</time>
      </trkpt>
      <trkpt lat="45.03163" lon="3.57362">
        <ele>890.1</ele>
        <time>2018-06-08T08:42:24Z</time>
      </trkpt>
      <trkpt lat="45.03154" lon="3.5736">
        <ele>890.3</ele>
        <time>2018-06-08T08:42:32Z</time>
      </trkpt>
      <trkpt lat="45.03145" lon="3.57357">
        <ele>890.4</ele>
        <time>2018-06-08T08:42:40Z</time>
      </trkpt>
      <trkpt lat="45.03135" lon="3.57356">
        <ele>890.6</ele>
        <time>2018-06-08T08:42:49Z</time>
      </trkpt>
      <trkpt lat="45.03126" lon="3.57354">
        <ele>890.8</ele>
        <time>2018-06-08T08:42:57Z</time>
      </trkpt>
      <trkpt lat="45.03116" lon="3.5735">
        <ele>891</ele>
        <time>2018-06-08T08:43:06Z</time>
      </trkpt>
      <trkpt lat="45.03107" lon="3.57345">
        <ele>891.1</ele>
        <time>2018-06-08T08:43:15Z</time>
      </trkpt>
      <trkpt lat="45.03098" lon="3.5734">
        <ele>891.2</ele>
        <time>2018-06-08T08:43:23Z</time>
      </trkpt>
      <trkpt lat="45.0309" lon="3.57334">
        <ele>891.2</ele>
        <time>2018-06-08T08:43:30Z</time>
      </trkpt>
      <trkpt lat="45.0308" lon="3.5733">
        <ele>891.2</ele>
        <time>2018-06-08T08:43:39Z</time>
      </trkpt>
      <trkpt lat="45.03071" lon="3.57325">
        <ele>891.3</ele>
        <time>2018-06-08T08:43:48Z</time>
      </trkpt>
      <trkpt lat="45.03062" lon="3.57321">
        <ele>891.4</ele>
        <time>2018-06-08T08:43:56Z</time>
      </trkpt>
      <trkpt lat="45.03054" lon="3.57317">
        <ele>891.5</ele>
        <time>2018-06-08T08:44:05Z</time>
      </trkpt>
      <trkpt lat="45.03046" lon="3.57311">
        <ele>891.7</ele>
        <time>2018-06-08T08:44:15Z</time>
      </trkpt>
      <trkpt lat="45.03039" lon="3.5732">
        <ele>891.8</ele>
        <time>2018-06-08T08:44:39Z</time>
      </trkpt>
      <trkpt lat="45.03036" lon="3.57333">
        <ele>891.9</ele>
        <time>2018-06-08T08:44:50Z</time>
      </trkpt>
      <trkpt lat="45.03035" lon="3.57346">
        <ele>891.5</ele>
        <time>2018-06-08T08:45:00Z</time>
      </trkpt>
      <trkpt lat="45.03034" lon="3.57359">
        <ele>890.8</ele>
        <time>2018-06-08T08:45:10Z</time>
      </trkpt>
      <trkpt lat="45.03032" lon="3.57373">
        <ele>889.8</ele>
        <time>2018-06-08T08:45:19Z</time>
      </trkpt>
      <trkpt lat="45.03028" lon="3.57385">
        <ele>889.1</ele>
        <time>2018-06-08T08:45:27Z</time>
      </trkpt>
      <trkpt lat="45.03026" lon="3.57398">
        <ele>888</ele>
        <time>2018-06-08T08:45:36Z</time>
      </trkpt>
      <trkpt lat="45.03025" lon="3.57411">
        <ele>886.6</ele>
        <time>2018-06-08T08:45:48Z</time>
      </trkpt>
      <trkpt lat="45.03022" lon="3.57423">
        <ele>885.9</ele>
        <time>2018-06-08T08:45:55Z</time>
      </trkpt>
      <trkpt lat="45.03014" lon="3.5743">
        <ele>884.9</ele>
        <time>2018-06-08T08:46:03Z</time>
      </trkpt>
      <trkpt lat="45.03005" lon="3.57431">
        <ele>883.8</ele>
        <time>2018-06-08T08:46:11Z</time>
      </trkpt>
      <trkpt lat="45.02996" lon="3.5743">
        <ele>883</ele>
        <time>2018-06-08T08:46:19Z</time>
      </trkpt>
      <trkpt lat="45.02987" lon="3.57428">
        <ele>882.3</ele>
        <time>2018-06-08T08:46:27Z</time>
      </trkpt>
      <trkpt lat="45.02978" lon="3.57427">
        <ele>881.6</ele>
        <time>2018-06-08T08:46:35Z</time>
      </trkpt>
      <trkpt lat="45.02968" lon="3.57425">
        <ele>881</ele>
        <time>2018-06-08T08:46:44Z</time>
      </trkpt>
      <trkpt lat="45.02959" lon="3.57424">
        <ele>880.2</ele>
        <time>2018-06-08T08:46:53Z</time>
      </trkpt>
      <trkpt lat="45.02949" lon="3.57423">
        <ele>879.4</ele>
        <time>2018-06-08T08:47:02Z</time>
      </trkpt>
      <trkpt lat="45.0294" lon="3.57422">
        <ele>878.5</ele>
        <time>2018-06-08T08:47:11Z</time>
      </trkpt>
      <trkpt lat="45.0293" lon="3.57421">
        <ele>877.6</ele>
        <time>2018-06-08T08:47:19Z</time>
      </trkpt>
      <trkpt lat="45.0292" lon="3.5742">
        <ele>876.6</ele>
        <time>2018-06-08T08:47:27Z</time>
      </trkpt>
      <trkpt lat="45.02911" lon="3.57416">
        <ele>875.4</ele>
        <time>2018-06-08T08:47:36Z</time>
      </trkpt>
      <trkpt lat="45.02901" lon="3.57414">
        <ele>874.2</ele>
        <time>2018-06-08T08:47:44Z</time>
      </trkpt>
      <trkpt lat="45.02892" lon="3.57411">
        <ele>873.1</ele>
        <time>2018-06-08T08:47:51Z</time>
      </trkpt>
      <trkpt lat="45.02883" lon="3.57406">
        <ele>871.7</ele>
        <time>2018-06-08T08:48:00Z</time>
      </trkpt>
      <trkpt lat="45.02875" lon="3.574">
        <ele>870.5</ele>
        <time>2018-06-08T08:48:08Z</time>
      </trkpt>
      <trkpt lat="45.02867" lon="3.57395">
        <ele>869.5</ele>
        <time>2018-06-08T08:48:16Z</time>
      </trkpt>
      <trkpt lat="45.02859" lon="3.57389">
        <ele>868.4</ele>
        <time>2018-06-08T08:48:24Z</time>
      </trkpt>
      <trkpt lat="45.02849" lon="3.57383">
        <ele>867.7</ele>
        <time>2018-06-08T08:48:30Z</time>
      </trkpt>
      <trkpt lat="45.0284" lon="3.57379">
        <ele>866.7</ele>
        <time>2018-06-08T08:48:40Z</time>
      </trkpt>
      <trkpt lat="45.02831" lon="3.57378">
        <ele>866.2</ele>
        <time>2018-06-08T08:48:51Z</time>
      </trkpt>
      <trkpt lat="45.02822" lon="3.57377">
        <ele>866.1</ele>
        <time>2018-06-08T08:48:58Z</time>
      </trkpt>
      <trkpt lat="45.02814" lon="3.5737">
        <ele>866</ele>
        <time>2018-06-08T08:49:07Z</time>
      </trkpt>
      <trkpt lat="45.02805" lon="3.57367">
        <ele>866</ele>
        <time>2018-06-08T08:49:15Z</time>
      </trkpt>
      <trkpt lat="45.02796" lon="3.57362">
        <ele>866.2</ele>
        <time>2018-06-08T08:49:23Z</time>
      </trkpt>
      <trkpt lat="45.02788" lon="3.57357">
        <ele>866.4</ele>
        <time>2018-06-08T08:49:31Z</time>
      </trkpt>
      <trkpt lat="45.02778" lon="3.57353">
        <ele>866.5</ele>
        <time>2018-06-08T08:49:39Z</time>
      </trkpt>
      <trkpt lat="45.02769" lon="3.57352">
        <ele>866.7</ele>
        <time>2018-06-08T08:49:48Z</time>
      </trkpt>
      <trkpt lat="45.0276" lon="3.57351">
        <ele>867.1</ele>
        <time>2018-06-08T08:49:58Z</time>
      </trkpt>
      <trkpt lat="45.02751" lon="3.57351">
        <ele>867.5</ele>
        <time>2018-06-08T08:50:06Z</time>
      </trkpt>
      <trkpt lat="45.02742" lon="3.57348">
        <ele>868.1</ele>
        <time>2018-06-08T08:50:16Z</time>
      </trkpt>
      <trkpt lat="45.0274" lon="3.57335">
        <ele>869</ele>
        <time>2018-06-08T08:50:27Z</time>
      </trkpt>
      <trkpt lat="45.02743" lon="3.57322">
        <ele>870</ele>
        <time>2018-06-08T08:50:39Z</time>
      </trkpt>
      <trkpt lat="45.02744" lon="3.57309">
        <ele>870.9</ele>
        <time>2018-06-08T08:50:50Z</time>
      </trkpt>
      <trkpt lat="45.02746" lon="3.57296">
        <ele>871.9</ele>
        <time>2018-06-08T08:51:00Z</time>
      </trkpt>
      <trkpt lat="45.0275" lon="3.57283">
        <ele>873.2</ele>
        <time>2018-06-08T08:51:10Z</time>
      </trkpt>
      <trkpt lat="45.02752" lon="3.5727">
        <ele>874.7</ele>
        <time>2018-06-08T08:51:21Z</time>
      </trkpt>
      <trkpt lat="45.02755" lon="3.57257">
        <ele>876.3</ele>
        <time>2018-06-08T08:51:32Z</time>
      </trkpt>
      <trkpt lat="45.02757" lon="3.57245">
        <ele>878.4</ele>
        <time>2018-06-08T08:51:45Z</time>
      </trkpt>
      <trkpt lat="45.02762" lon="3.57233">
        <ele>880.6</ele>
        <time>2018-06-08T08:51:58Z</time>
      </trkpt>
      <trkpt lat="45.02766" lon="3.5722">
        <ele>883.1</ele>
        <time>2018-06-08T08:52:11Z</time>
      </trkpt>
      <trkpt lat="45.02772" lon="3.57209">
        <ele>885</ele>
        <time>2018-06-08T08:52:22Z</time>
      </trkpt>
      <trkpt lat="45.02775" lon="3.57197">
        <ele>886.6</ele>
        <time>2018-06-08T08:52:32Z</time>
      </trkpt>
      <trkpt lat="45.0278" lon="3.57186">
        <ele>887.8</ele>
        <time>2018-06-08T08:52:42Z</time>
      </trkpt>
      <trkpt lat="45.02782" lon="3.57172">
        <ele>888.4</ele>
        <time>2018-06-08T08:52:51Z</time>
      </trkpt>
      <trkpt lat="45.02782" lon="3.57159">
        <ele>888.8</ele>
        <time>2018-06-08T08:53:00Z</time>
      </trkpt>
      <trkpt lat="45.02777" lon="3.57147">
        <ele>889.8</ele>
        <time>2018-06-08T08:53:13Z</time>
      </trkpt>
      <trkpt lat="45.02767" lon="3.57148">
        <ele>891.4</ele>
        <time>2018-06-08T08:58:46Z</time>
      </trkpt>
      <trkpt lat="45.02758" lon="3.57146">
        <ele>891.4</ele>
        <time>2018-06-08T08:58:51Z</time>
      </trkpt>
      <trkpt lat="45.02749" lon="3.57146">
        <ele>891.3</ele>
        <time>2018-06-08T08:58:58Z</time>
      </trkpt>
      <trkpt lat="45.02739" lon="3.57147">
        <ele>890.7</ele>
        <time>2018-06-08T08:59:53Z</time>
      </trkpt>
      <trkpt lat="45.0273" lon="3.57149">
        <ele>890.5</ele>
        <time>2018-06-08T09:00:05Z</time>
      </trkpt>
      <trkpt lat="45.02721" lon="3.57154">
        <ele>890.4</ele>
        <time>2018-06-08T09:00:12Z</time>
      </trkpt>
      <trkpt lat="45.02714" lon="3.57162">
        <ele>890.3</ele>
        <time>2018-06-08T09:00:20Z</time>
      </trkpt>
      <trkpt lat="45.02706" lon="3.5717">
        <ele>890.3</ele>
        <time>2018-06-08T09:00:36Z</time>
      </trkpt>
      <trkpt lat="45.02697" lon="3.57176">
        <ele>890.2</ele>
        <time>2018-06-08T09:01:36Z</time>
      </trkpt>
      <trkpt lat="45.02688" lon="3.57182">
        <ele>890.2</ele>
        <time>2018-06-08T09:02:09Z</time>
      </trkpt>
      <trkpt lat="45.02682" lon="3.57192">
        <ele>889.7</ele>
        <time>2018-06-08T09:02:20Z</time>
      </trkpt>
      <trkpt lat="45.02675" lon="3.572">
        <ele>888.8</ele>
        <time>2018-06-08T09:02:31Z</time>
      </trkpt>
      <trkpt lat="45.02672" lon="3.57213">
        <ele>887.9</ele>
        <time>2018-06-08T09:02:43Z</time>
      </trkpt>
      <trkpt lat="45.02669" lon="3.57224">
        <ele>886.9</ele>
        <time>2018-06-08T09:02:53Z</time>
      </trkpt>
      <trkpt lat="45.02662" lon="3.57234">
        <ele>885.6</ele>
        <time>2018-06-08T09:03:07Z</time>
      </trkpt>
      <trkpt lat="45.02658" lon="3.57246">
        <ele>885</ele>
        <time>2018-06-08T09:03:17Z</time>
      </trkpt>
      <trkpt lat="45.02654" lon="3.57258">
        <ele>884.5</ele>
        <time>2018-06-08T09:03:26Z</time>
      </trkpt>
      <trkpt lat="45.02656" lon="3.57273">
        <ele>883.8</ele>
        <time>2018-06-08T09:03:39Z</time>
      </trkpt>
      <trkpt lat="45.02655" lon="3.57286">
        <ele>883.5</ele>
        <time>2018-06-08T09:03:45Z</time>
      </trkpt>
      <trkpt lat="45.02654" lon="3.57299">
        <ele>883.1</ele>
        <time>2018-06-08T09:03:56Z</time>
      </trkpt>
      <trkpt lat="45.02649" lon="3.5731">
        <ele>882.9</ele>
        <time>2018-06-08T09:04:04Z</time>
      </trkpt>
      <trkpt lat="45.02646" lon="3.57322">
        <ele>882.8</ele>
        <time>2018-06-08T09:04:19Z</time>
      </trkpt>
      <trkpt lat="45.02642" lon="3.57334">
        <ele>882.7</ele>
        <time>2018-06-08T09:04:27Z</time>
      </trkpt>
      <trkpt lat="45.02637" lon="3.57347">
        <ele>882.5</ele>
        <time>2018-06-08T09:04:36Z</time>
      </trkpt>
      <trkpt lat="45.02626" lon="3.57368">
        <ele>880</ele>
        <time>2018-06-08T09:05:19Z</time>
      </trkpt>
      <trkpt lat="45.0262" lon="3.57378">
        <ele>880.2</ele>
        <time>2018-06-08T09:05:27Z</time>
      </trkpt>
      <trkpt lat="45.02617" lon="3.57391">
        <ele>879.5</ele>
        <time>2018-06-08T09:05:34Z</time>
      </trkpt>
      <trkpt lat="45.02611" lon="3.57402">
        <ele>878.4</ele>
        <time>2018-06-08T09:05:44Z</time>
      </trkpt>
      <trkpt lat="45.02603" lon="3.57411">
        <ele>877.8</ele>
        <time>2018-06-08T09:05:51Z</time>
      </trkpt>
      <trkpt lat="45.02597" lon="3.57422">
        <ele>876.9</ele>
        <time>2018-06-08T09:06:01Z</time>
      </trkpt>
      <trkpt lat="45.02591" lon="3.57432">
        <ele>876</ele>
        <time>2018-06-08T09:06:11Z</time>
      </trkpt>
      <trkpt lat="45.02584" lon="3.57439">
        <ele>874.1</ele>
        <time>2018-06-08T09:06:40Z</time>
      </trkpt>
      <trkpt lat="45.02574" lon="3.57439">
        <ele>873.7</ele>
        <time>2018-06-08T09:06:49Z</time>
      </trkpt>
      <trkpt lat="45.02565" lon="3.57435">
        <ele>873.1</ele>
        <time>2018-06-08T09:06:57Z</time>
      </trkpt>
      <trkpt lat="45.02556" lon="3.57433">
        <ele>872.2</ele>
        <time>2018-06-08T09:07:05Z</time>
      </trkpt>
      <trkpt lat="45.02546" lon="3.5743">
        <ele>871.3</ele>
        <time>2018-06-08T09:07:15Z</time>
      </trkpt>
      <trkpt lat="45.02537" lon="3.57431">
        <ele>870.7</ele>
        <time>2018-06-08T09:07:24Z</time>
      </trkpt>
      <trkpt lat="45.02528" lon="3.57432">
        <ele>870.1</ele>
        <time>2018-06-08T09:07:37Z</time>
      </trkpt>
      <trkpt lat="45.02519" lon="3.5744">
        <ele>869.8</ele>
        <time>2018-06-08T09:07:47Z</time>
      </trkpt>
      <trkpt lat="45.02512" lon="3.5745">
        <ele>869.6</ele>
        <time>2018-06-08T09:07:56Z</time>
      </trkpt>
      <trkpt lat="45.02507" lon="3.57462">
        <ele>869.5</ele>
        <time>2018-06-08T09:08:05Z</time>
      </trkpt>
      <trkpt lat="45.02501" lon="3.57474">
        <ele>869.8</ele>
        <time>2018-06-08T09:11:21Z</time>
      </trkpt>
      <trkpt lat="45.02493" lon="3.57483">
        <ele>869.9</ele>
        <time>2018-06-08T09:11:26Z</time>
      </trkpt>
      <trkpt lat="45.02486" lon="3.57492">
        <ele>870.1</ele>
        <time>2018-06-08T09:11:34Z</time>
      </trkpt>
      <trkpt lat="45.02477" lon="3.57497">
        <ele>870.7</ele>
        <time>2018-06-08T09:11:46Z</time>
      </trkpt>
      <trkpt lat="45.0247" lon="3.57504">
        <ele>871.1</ele>
        <time>2018-06-08T09:11:59Z</time>
      </trkpt>
      <trkpt lat="45.0246" lon="3.57507">
        <ele>870.8</ele>
        <time>2018-06-08T09:12:10Z</time>
      </trkpt>
      <trkpt lat="45.02453" lon="3.57514">
        <ele>869.8</ele>
        <time>2018-06-08T09:12:23Z</time>
      </trkpt>
      <trkpt lat="45.02444" lon="3.57522">
        <ele>868.7</ele>
        <time>2018-06-08T09:12:34Z</time>
      </trkpt>
      <trkpt lat="45.02435" lon="3.57524">
        <ele>867.3</ele>
        <time>2018-06-08T09:12:46Z</time>
      </trkpt>
      <trkpt lat="45.02426" lon="3.57528">
        <ele>865.4</ele>
        <time>2018-06-08T09:12:59Z</time>
      </trkpt>
      <trkpt lat="45.02417" lon="3.57534">
        <ele>864.3</ele>
        <time>2018-06-08T09:13:10Z</time>
      </trkpt>
      <trkpt lat="45.02408" lon="3.57536">
        <ele>863.2</ele>
        <time>2018-06-08T09:13:21Z</time>
      </trkpt>
      <trkpt lat="45.02399" lon="3.57537">
        <ele>862.2</ele>
        <time>2018-06-08T09:13:31Z</time>
      </trkpt>
      <trkpt lat="45.0239" lon="3.57536">
        <ele>861.2</ele>
        <time>2018-06-08T09:13:40Z</time>
      </trkpt>
      <trkpt lat="45.02381" lon="3.57534">
        <ele>859.9</ele>
        <time>2018-06-08T09:13:51Z</time>
      </trkpt>
      <trkpt lat="45.02372" lon="3.57528">
        <ele>858.8</ele>
        <time>2018-06-08T09:14:01Z</time>
      </trkpt>
      <trkpt lat="45.02363" lon="3.57524">
        <ele>857.8</ele>
        <time>2018-06-08T09:14:11Z</time>
      </trkpt>
      <trkpt lat="45.02354" lon="3.57521">
        <ele>857.2</ele>
        <time>2018-06-08T09:14:20Z</time>
      </trkpt>
      <trkpt lat="45.02344" lon="3.5752">
        <ele>856.2</ele>
        <time>2018-06-08T09:14:32Z</time>
      </trkpt>
      <trkpt lat="45.02335" lon="3.57523">
        <ele>855.3</ele>
        <time>2018-06-08T09:14:43Z</time>
      </trkpt>
      <trkpt lat="45.02326" lon="3.57529">
        <ele>854.7</ele>
        <time>2018-06-08T09:14:54Z</time>
      </trkpt>
      <trkpt lat="45.02317" lon="3.57535">
        <ele>854.1</ele>
        <time>2018-06-08T09:15:10Z</time>
      </trkpt>
      <trkpt lat="45.02308" lon="3.57534">
        <ele>853.8</ele>
        <time>2018-06-08T09:15:19Z</time>
      </trkpt>
      <trkpt lat="45.02299" lon="3.5753">
        <ele>853.6</ele>
        <time>2018-06-08T09:15:25Z</time>
      </trkpt>
      <trkpt lat="45.02289" lon="3.57526">
        <ele>853.2</ele>
        <time>2018-06-08T09:15:33Z</time>
      </trkpt>
      <trkpt lat="45.0228" lon="3.57526">
        <ele>852.9</ele>
        <time>2018-06-08T09:15:43Z</time>
      </trkpt>
      <trkpt lat="45.02272" lon="3.57517">
        <ele>852.4</ele>
        <time>2018-06-08T09:15:54Z</time>
      </trkpt>
      <trkpt lat="45.02266" lon="3.57506">
        <ele>852.2</ele>
        <time>2018-06-08T09:16:06Z</time>
      </trkpt>
      <trkpt lat="45.0226" lon="3.57496">
        <ele>852.1</ele>
        <time>2018-06-08T09:16:17Z</time>
      </trkpt>
      <trkpt lat="45.02253" lon="3.57487">
        <ele>852</ele>
        <time>2018-06-08T09:16:29Z</time>
      </trkpt>
      <trkpt lat="45.02247" lon="3.57478">
        <ele>852</ele>
        <time>2018-06-08T09:16:41Z</time>
      </trkpt>
      <trkpt lat="45.02241" lon="3.57468">
        <ele>852</ele>
        <time>2018-06-08T09:16:54Z</time>
      </trkpt>
      <trkpt lat="45.02239" lon="3.57454">
        <ele>852</ele>
        <time>2018-06-08T09:17:07Z</time>
      </trkpt>
      <trkpt lat="45.02235" lon="3.57442">
        <ele>852</ele>
        <time>2018-06-08T09:17:17Z</time>
      </trkpt>
      <trkpt lat="45.02232" lon="3.5743">
        <ele>852</ele>
        <time>2018-06-08T09:17:26Z</time>
      </trkpt>
      <trkpt lat="45.02231" lon="3.57416">
        <ele>851.8</ele>
        <time>2018-06-08T09:17:37Z</time>
      </trkpt>
      <trkpt lat="45.02226" lon="3.57405">
        <ele>851.3</ele>
        <time>2018-06-08T09:17:47Z</time>
      </trkpt>
      <trkpt lat="45.02218" lon="3.57397">
        <ele>851</ele>
        <time>2018-06-08T09:17:57Z</time>
      </trkpt>
      <trkpt lat="45.02212" lon="3.57388">
        <ele>850.7</ele>
        <time>2018-06-08T09:18:08Z</time>
      </trkpt>
      <trkpt lat="45.02203" lon="3.57381">
        <ele>850.5</ele>
        <time>2018-06-08T09:18:16Z</time>
      </trkpt>
      <trkpt lat="45.02196" lon="3.57373">
        <ele>850.3</ele>
        <time>2018-06-08T09:18:27Z</time>
      </trkpt>
      <trkpt lat="45.02188" lon="3.57363">
        <ele>850.3</ele>
        <time>2018-06-08T09:18:37Z</time>
      </trkpt>
      <trkpt lat="45.02181" lon="3.57355">
        <ele>850.2</ele>
        <time>2018-06-08T09:18:44Z</time>
      </trkpt>
      <trkpt lat="45.02172" lon="3.57347">
        <ele>850.2</ele>
        <time>2018-06-08T09:18:53Z</time>
      </trkpt>
      <trkpt lat="45.02164" lon="3.5734">
        <ele>850.1</ele>
        <time>2018-06-08T09:19:02Z</time>
      </trkpt>
      <trkpt lat="45.02156" lon="3.57332">
        <ele>849.9</ele>
        <time>2018-06-08T09:19:12Z</time>
      </trkpt>
      <trkpt lat="45.02149" lon="3.57324">
        <ele>849.5</ele>
        <time>2018-06-08T09:19:21Z</time>
      </trkpt>
      <trkpt lat="45.02144" lon="3.57313">
        <ele>849</ele>
        <time>2018-06-08T09:19:28Z</time>
      </trkpt>
      <trkpt lat="45.02139" lon="3.57302">
        <ele>848.4</ele>
        <time>2018-06-08T09:19:37Z</time>
      </trkpt>
      <trkpt lat="45.02133" lon="3.57291">
        <ele>848</ele>
        <time>2018-06-08T09:19:46Z</time>
      </trkpt>
      <trkpt lat="45.02127" lon="3.57281">
        <ele>847.7</ele>
        <time>2018-06-08T09:19:55Z</time>
      </trkpt>
      <trkpt lat="45.02121" lon="3.57271">
        <ele>847.5</ele>
        <time>2018-06-08T09:20:03Z</time>
      </trkpt>
      <trkpt lat="45.02118" lon="3.57259">
        <ele>847.3</ele>
        <time>2018-06-08T09:20:12Z</time>
      </trkpt>
      <trkpt lat="45.0211" lon="3.57252">
        <ele>847.2</ele>
        <time>2018-06-08T09:20:20Z</time>
      </trkpt>
      <trkpt lat="45.02101" lon="3.57251">
        <ele>846.7</ele>
        <time>2018-06-08T09:20:29Z</time>
      </trkpt>
      <trkpt lat="45.02093" lon="3.57244">
        <ele>845.5</ele>
        <time>2018-06-08T09:20:41Z</time>
      </trkpt>
      <trkpt lat="45.02085" lon="3.57241">
        <ele>844</ele>
        <time>2018-06-08T09:20:52Z</time>
      </trkpt>
      <trkpt lat="45.02076" lon="3.57241">
        <ele>842.6</ele>
        <time>2018-06-08T09:21:01Z</time>
      </trkpt>
      <trkpt lat="45.02066" lon="3.57242">
        <ele>841.3</ele>
        <time>2018-06-08T09:21:10Z</time>
      </trkpt>
      <trkpt lat="45.02057" lon="3.57239">
        <ele>839.9</ele>
        <time>2018-06-08T09:21:20Z</time>
      </trkpt>
      <trkpt lat="45.02048" lon="3.57235">
        <ele>838.9</ele>
        <time>2018-06-08T09:21:32Z</time>
      </trkpt>
      <trkpt lat="45.02038" lon="3.57231">
        <ele>838.3</ele>
        <time>2018-06-08T09:21:43Z</time>
      </trkpt>
      <trkpt lat="45.02029" lon="3.57233">
        <ele>838</ele>
        <time>2018-06-08T09:21:50Z</time>
      </trkpt>
      <trkpt lat="45.0202" lon="3.57239">
        <ele>837.2</ele>
        <time>2018-06-08T09:22:10Z</time>
      </trkpt>
      <trkpt lat="45.02017" lon="3.57252">
        <ele>836.6</ele>
        <time>2018-06-08T09:22:18Z</time>
      </trkpt>
      <trkpt lat="45.02013" lon="3.57264">
        <ele>835.7</ele>
        <time>2018-06-08T09:22:26Z</time>
      </trkpt>
      <trkpt lat="45.02008" lon="3.57276">
        <ele>834.8</ele>
        <time>2018-06-08T09:22:34Z</time>
      </trkpt>
      <trkpt lat="45.02001" lon="3.57283">
        <ele>833.9</ele>
        <time>2018-06-08T09:22:41Z</time>
      </trkpt>
      <trkpt lat="45.01994" lon="3.57292">
        <ele>832.9</ele>
        <time>2018-06-08T09:22:49Z</time>
      </trkpt>
      <trkpt lat="45.01985" lon="3.57298">
        <ele>831.9</ele>
        <time>2018-06-08T09:22:57Z</time>
      </trkpt>
      <trkpt lat="45.01976" lon="3.57302">
        <ele>830.9</ele>
        <time>2018-06-08T09:23:04Z</time>
      </trkpt>
      <trkpt lat="45.01967" lon="3.57303">
        <ele>830.4</ele>
        <time>2018-06-08T09:23:10Z</time>
      </trkpt>
      <trkpt lat="45.01957" lon="3.57302">
        <ele>829.8</ele>
        <time>2018-06-08T09:23:17Z</time>
      </trkpt>
      <trkpt lat="45.01948" lon="3.57303">
        <ele>829.3</ele>
        <time>2018-06-08T09:23:25Z</time>
      </trkpt>
      <trkpt lat="45.01939" lon="3.57308">
        <ele>828.9</ele>
        <time>2018-06-08T09:23:39Z</time>
      </trkpt>
      <trkpt lat="45.01931" lon="3.57313">
        <ele>828.7</ele>
        <time>2018-06-08T09:23:49Z</time>
      </trkpt>
      <trkpt lat="45.01923" lon="3.5732">
        <ele>828.6</ele>
        <time>2018-06-08T09:23:57Z</time>
      </trkpt>
      <trkpt lat="45.01917" lon="3.57336">
        <ele>828.5</ele>
        <time>2018-06-08T09:24:23Z</time>
      </trkpt>
      <trkpt lat="45.01913" lon="3.57349">
        <ele>828.5</ele>
        <time>2018-06-08T09:24:29Z</time>
      </trkpt>
      <trkpt lat="45.01905" lon="3.57356">
        <ele>828.8</ele>
        <time>2018-06-08T09:24:36Z</time>
      </trkpt>
      <trkpt lat="45.01896" lon="3.57367">
        <ele>829.3</ele>
        <time>2018-06-08T09:24:43Z</time>
      </trkpt>
      <trkpt lat="45.01896" lon="3.5738">
        <ele>829.7</ele>
        <time>2018-06-08T09:24:49Z</time>
      </trkpt>
      <trkpt lat="45.01889" lon="3.57388">
        <ele>830.9</ele>
        <time>2018-06-08T09:24:59Z</time>
      </trkpt>
      <trkpt lat="45.0188" lon="3.5739">
        <ele>831.7</ele>
        <time>2018-06-08T09:25:07Z</time>
      </trkpt>
      <trkpt lat="45.0187" lon="3.57392">
        <ele>833.1</ele>
        <time>2018-06-08T09:25:17Z</time>
      </trkpt>
      <trkpt lat="45.01861" lon="3.57394">
        <ele>835.8</ele>
        <time>2018-06-08T09:25:36Z</time>
      </trkpt>
      <trkpt lat="45.01852" lon="3.57395">
        <ele>836.4</ele>
        <time>2018-06-08T09:25:41Z</time>
      </trkpt>
      <trkpt lat="45.01842" lon="3.57394">
        <ele>837.3</ele>
        <time>2018-06-08T09:25:48Z</time>
      </trkpt>
      <trkpt lat="45.01832" lon="3.57392">
        <ele>838.5</ele>
        <time>2018-06-08T09:25:56Z</time>
      </trkpt>
      <trkpt lat="45.01823" lon="3.57392">
        <ele>839.8</ele>
        <time>2018-06-08T09:26:05Z</time>
      </trkpt>
      <trkpt lat="45.01814" lon="3.57387">
        <ele>841.2</ele>
        <time>2018-06-08T09:26:15Z</time>
      </trkpt>
      <trkpt lat="45.01807" lon="3.57377">
        <ele>842.4</ele>
        <time>2018-06-08T09:26:24Z</time>
      </trkpt>
      <trkpt lat="45.01806" lon="3.57364">
        <ele>843.8</ele>
        <time>2018-06-08T09:26:35Z</time>
      </trkpt>
      <trkpt lat="45.01806" lon="3.5735">
        <ele>845.1</ele>
        <time>2018-06-08T09:26:47Z</time>
      </trkpt>
      <trkpt lat="45.01803" lon="3.57337">
        <ele>846</ele>
        <time>2018-06-08T09:26:57Z</time>
      </trkpt>
      <trkpt lat="45.01798" lon="3.57326">
        <ele>846.5</ele>
        <time>2018-06-08T09:27:09Z</time>
      </trkpt>
      <trkpt lat="45.01789" lon="3.57321">
        <ele>846.7</ele>
        <time>2018-06-08T09:27:18Z</time>
      </trkpt>
      <trkpt lat="45.01781" lon="3.57328">
        <ele>846.9</ele>
        <time>2018-06-08T09:27:28Z</time>
      </trkpt>
      <trkpt lat="45.01774" lon="3.57336">
        <ele>847.8</ele>
        <time>2018-06-08T09:27:39Z</time>
      </trkpt>
      <trkpt lat="45.01766" lon="3.57342">
        <ele>849.3</ele>
        <time>2018-06-08T09:27:50Z</time>
      </trkpt>
      <trkpt lat="45.01758" lon="3.57348">
        <ele>850.8</ele>
        <time>2018-06-08T09:28:00Z</time>
      </trkpt>
      <trkpt lat="45.0175" lon="3.57354">
        <ele>852.7</ele>
        <time>2018-06-08T09:28:13Z</time>
      </trkpt>
      <trkpt lat="45.01742" lon="3.57362">
        <ele>854.4</ele>
        <time>2018-06-08T09:28:26Z</time>
      </trkpt>
      <trkpt lat="45.01735" lon="3.57372">
        <ele>856.3</ele>
        <time>2018-06-08T09:28:40Z</time>
      </trkpt>
      <trkpt lat="45.01727" lon="3.57379">
        <ele>857.6</ele>
        <time>2018-06-08T09:28:50Z</time>
      </trkpt>
      <trkpt lat="45.01718" lon="3.57385">
        <ele>859</ele>
        <time>2018-06-08T09:29:01Z</time>
      </trkpt>
      <trkpt lat="45.0171" lon="3.57392">
        <ele>860.1</ele>
        <time>2018-06-08T09:29:11Z</time>
      </trkpt>
      <trkpt lat="45.01701" lon="3.57398">
        <ele>861.2</ele>
        <time>2018-06-08T09:29:21Z</time>
      </trkpt>
      <trkpt lat="45.01693" lon="3.57405">
        <ele>862.5</ele>
        <time>2018-06-08T09:29:32Z</time>
      </trkpt>
      <trkpt lat="45.01685" lon="3.57414">
        <ele>863.6</ele>
        <time>2018-06-08T09:29:42Z</time>
      </trkpt>
      <trkpt lat="45.01677" lon="3.57422">
        <ele>864.6</ele>
        <time>2018-06-08T09:29:53Z</time>
      </trkpt>
      <trkpt lat="45.01669" lon="3.57429">
        <ele>865.5</ele>
        <time>2018-06-08T09:30:04Z</time>
      </trkpt>
      <trkpt lat="45.01661" lon="3.57437">
        <ele>866.4</ele>
        <time>2018-06-08T09:30:14Z</time>
      </trkpt>
      <trkpt lat="45.01653" lon="3.57444">
        <ele>867.3</ele>
        <time>2018-06-08T09:30:23Z</time>
      </trkpt>
      <trkpt lat="45.01645" lon="3.5745">
        <ele>868.2</ele>
        <time>2018-06-08T09:30:33Z</time>
      </trkpt>
      <trkpt lat="45.01637" lon="3.57456">
        <ele>870.9</ele>
        <time>2018-06-08T09:34:13Z</time>
      </trkpt>
      <trkpt lat="45.01629" lon="3.57466">
        <ele>871</ele>
        <time>2018-06-08T09:34:22Z</time>
      </trkpt>
      <trkpt lat="45.01621" lon="3.57472">
        <ele>871.2</ele>
        <time>2018-06-08T09:34:30Z</time>
      </trkpt>
      <trkpt lat="45.01614" lon="3.57481">
        <ele>871.5</ele>
        <time>2018-06-08T09:34:40Z</time>
      </trkpt>
      <trkpt lat="45.01607" lon="3.5749">
        <ele>872.1</ele>
        <time>2018-06-08T09:34:55Z</time>
      </trkpt>
      <trkpt lat="45.016" lon="3.57497">
        <ele>872.4</ele>
        <time>2018-06-08T09:35:05Z</time>
      </trkpt>
      <trkpt lat="45.01593" lon="3.57507">
        <ele>872.6</ele>
        <time>2018-06-08T09:35:15Z</time>
      </trkpt>
      <trkpt lat="45.01586" lon="3.57516">
        <ele>873</ele>
        <time>2018-06-08T09:35:29Z</time>
      </trkpt>
      <trkpt lat="45.01579" lon="3.57524">
        <ele>873.4</ele>
        <time>2018-06-08T09:35:42Z</time>
      </trkpt>
      <trkpt lat="45.01572" lon="3.57535">
        <ele>873.7</ele>
        <time>2018-06-08T09:35:52Z</time>
      </trkpt>
      <trkpt lat="45.01564" lon="3.57543">
        <ele>873.8</ele>
        <time>2018-06-08T09:36:01Z</time>
      </trkpt>
      <trkpt lat="45.01558" lon="3.57553">
        <ele>874</ele>
        <time>2018-06-08T09:36:09Z</time>
      </trkpt>
      <trkpt lat="45.01551" lon="3.57563">
        <ele>874.3</ele>
        <time>2018-06-08T09:36:18Z</time>
      </trkpt>
      <trkpt lat="45.01545" lon="3.57574">
        <ele>874.7</ele>
        <time>2018-06-08T09:36:27Z</time>
      </trkpt>
      <trkpt lat="45.01536" lon="3.57581">
        <ele>875.3</ele>
        <time>2018-06-08T09:36:37Z</time>
      </trkpt>
      <trkpt lat="45.01528" lon="3.57584">
        <ele>876.1</ele>
        <time>2018-06-08T09:36:48Z</time>
      </trkpt>
      <trkpt lat="45.01517" lon="3.57593">
        <ele>878.2</ele>
        <time>2018-06-08T09:37:05Z</time>
      </trkpt>
      <trkpt lat="45.0151" lon="3.57602">
        <ele>879.2</ele>
        <time>2018-06-08T09:37:13Z</time>
      </trkpt>
      <trkpt lat="45.01501" lon="3.57606">
        <ele>881</ele>
        <time>2018-06-08T09:37:25Z</time>
      </trkpt>
      <trkpt lat="45.01492" lon="3.57605">
        <ele>882.6</ele>
        <time>2018-06-08T09:37:38Z</time>
      </trkpt>
      <trkpt lat="45.01484" lon="3.57613">
        <ele>884</ele>
        <time>2018-06-08T09:37:49Z</time>
      </trkpt>
      <trkpt lat="45.01477" lon="3.5762">
        <ele>885.4</ele>
        <time>2018-06-08T09:38:00Z</time>
      </trkpt>
      <trkpt lat="45.01468" lon="3.57628">
        <ele>886.9</ele>
        <time>2018-06-08T09:38:11Z</time>
      </trkpt>
      <trkpt lat="45.01459" lon="3.57633">
        <ele>888.2</ele>
        <time>2018-06-08T09:38:23Z</time>
      </trkpt>
      <trkpt lat="45.0145" lon="3.57636">
        <ele>889.2</ele>
        <time>2018-06-08T09:38:34Z</time>
      </trkpt>
      <trkpt lat="45.01441" lon="3.57642">
        <ele>890.7</ele>
        <time>2018-06-08T09:38:47Z</time>
      </trkpt>
      <trkpt lat="45.01432" lon="3.57649">
        <ele>891.6</ele>
        <time>2018-06-08T09:38:56Z</time>
      </trkpt>
      <trkpt lat="45.01424" lon="3.57655">
        <ele>892.6</ele>
        <time>2018-06-08T09:39:05Z</time>
      </trkpt>
      <trkpt lat="45.01415" lon="3.57661">
        <ele>893.7</ele>
        <time>2018-06-08T09:39:14Z</time>
      </trkpt>
      <trkpt lat="45.01407" lon="3.5767">
        <ele>894.9</ele>
        <time>2018-06-08T09:39:24Z</time>
      </trkpt>
      <trkpt lat="45.01398" lon="3.57676">
        <ele>896.1</ele>
        <time>2018-06-08T09:39:33Z</time>
      </trkpt>
      <trkpt lat="45.0139" lon="3.57681">
        <ele>897.3</ele>
        <time>2018-06-08T09:39:42Z</time>
      </trkpt>
      <trkpt lat="45.01382" lon="3.57688">
        <ele>899.2</ele>
        <time>2018-06-08T09:39:55Z</time>
      </trkpt>
      <trkpt lat="45.01374" lon="3.57695">
        <ele>901</ele>
        <time>2018-06-08T09:40:07Z</time>
      </trkpt>
      <trkpt lat="45.01366" lon="3.57704">
        <ele>902.7</ele>
        <time>2018-06-08T09:40:19Z</time>
      </trkpt>
      <trkpt lat="45.01359" lon="3.57713">
        <ele>904.2</ele>
        <time>2018-06-08T09:40:30Z</time>
      </trkpt>
      <trkpt lat="45.01352" lon="3.57722">
        <ele>905.8</ele>
        <time>2018-06-08T09:40:41Z</time>
      </trkpt>
      <trkpt lat="45.01346" lon="3.57733">
        <ele>907.1</ele>
        <time>2018-06-08T09:40:50Z</time>
      </trkpt>
      <trkpt lat="45.01338" lon="3.5774">
        <ele>908.4</ele>
        <time>2018-06-08T09:40:59Z</time>
      </trkpt>
      <trkpt lat="45.01333" lon="3.57751">
        <ele>909.9</ele>
        <time>2018-06-08T09:41:09Z</time>
      </trkpt>
      <trkpt lat="45.01327" lon="3.57761">
        <ele>911.5</ele>
        <time>2018-06-08T09:41:19Z</time>
      </trkpt>
      <trkpt lat="45.01322" lon="3.57772">
        <ele>913</ele>
        <time>2018-06-08T09:41:29Z</time>
      </trkpt>
      <trkpt lat="45.01315" lon="3.57782">
        <ele>914.5</ele>
        <time>2018-06-08T09:41:40Z</time>
      </trkpt>
      <trkpt lat="45.01308" lon="3.57791">
        <ele>915.8</ele>
        <time>2018-06-08T09:41:50Z</time>
      </trkpt>
      <trkpt lat="45.01302" lon="3.57801">
        <ele>917.3</ele>
        <time>2018-06-08T09:42:01Z</time>
      </trkpt>
      <trkpt lat="45.01293" lon="3.57807">
        <ele>918.2</ele>
        <time>2018-06-08T09:42:10Z</time>
      </trkpt>
      <trkpt lat="45.01285" lon="3.57814">
        <ele>919.1</ele>
        <time>2018-06-08T09:42:20Z</time>
      </trkpt>
      <trkpt lat="45.01278" lon="3.57822">
        <ele>920.1</ele>
        <time>2018-06-08T09:42:32Z</time>
      </trkpt>
      <trkpt lat="45.0127" lon="3.5783">
        <ele>920.5</ele>
        <time>2018-06-08T09:42:42Z</time>
      </trkpt>
      <trkpt lat="45.01265" lon="3.57841">
        <ele>921.2</ele>
        <time>2018-06-08T09:42:52Z</time>
      </trkpt>
      <trkpt lat="45.01259" lon="3.57851">
        <ele>921.6</ele>
        <time>2018-06-08T09:43:01Z</time>
      </trkpt>
      <trkpt lat="45.01254" lon="3.57862">
        <ele>923.2</ele>
        <time>2018-06-08T09:46:09Z</time>
      </trkpt>
      <trkpt lat="45.0126" lon="3.57872">
        <ele>923.5</ele>
        <time>2018-06-08T09:53:44Z</time>
      </trkpt>
      <trkpt lat="45.01265" lon="3.57884">
        <ele>923.5</ele>
        <time>2018-06-08T09:53:51Z</time>
      </trkpt>
      <trkpt lat="45.01271" lon="3.57894">
        <ele>923.2</ele>
        <time>2018-06-08T09:53:59Z</time>
      </trkpt>
      <trkpt lat="45.01276" lon="3.57905">
        <ele>922.8</ele>
        <time>2018-06-08T09:54:08Z</time>
      </trkpt>
      <trkpt lat="45.01281" lon="3.57917">
        <ele>922.2</ele>
        <time>2018-06-08T09:54:15Z</time>
      </trkpt>
      <trkpt lat="45.01286" lon="3.57928">
        <ele>921.6</ele>
        <time>2018-06-08T09:54:22Z</time>
      </trkpt>
      <trkpt lat="45.01293" lon="3.57938">
        <ele>920.7</ele>
        <time>2018-06-08T09:54:31Z</time>
      </trkpt>
      <trkpt lat="45.013" lon="3.57947">
        <ele>919.7</ele>
        <time>2018-06-08T09:54:41Z</time>
      </trkpt>
      <trkpt lat="45.01308" lon="3.57954">
        <ele>918.9</ele>
        <time>2018-06-08T09:54:49Z</time>
      </trkpt>
      <trkpt lat="45.01312" lon="3.57965">
        <ele>918.3</ele>
        <time>2018-06-08T09:54:55Z</time>
      </trkpt>
      <trkpt lat="45.01318" lon="3.57976">
        <ele>917.5</ele>
        <time>2018-06-08T09:55:02Z</time>
      </trkpt>
      <trkpt lat="45.01325" lon="3.57985">
        <ele>916.9</ele>
        <time>2018-06-08T09:55:09Z</time>
      </trkpt>
      <trkpt lat="45.01331" lon="3.57995">
        <ele>916.2</ele>
        <time>2018-06-08T09:55:16Z</time>
      </trkpt>
      <trkpt lat="45.01337" lon="3.58004">
        <ele>915.6</ele>
        <time>2018-06-08T09:55:22Z</time>
      </trkpt>
      <trkpt lat="45.01344" lon="3.58015">
        <ele>914.9</ele>
        <time>2018-06-08T09:55:30Z</time>
      </trkpt>
      <trkpt lat="45.01348" lon="3.58026">
        <ele>914.3</ele>
        <time>2018-06-08T09:55:37Z</time>
      </trkpt>
      <trkpt lat="45.01354" lon="3.58036">
        <ele>913.7</ele>
        <time>2018-06-08T09:55:43Z</time>
      </trkpt>
      <trkpt lat="45.0136" lon="3.58046">
        <ele>912.9</ele>
        <time>2018-06-08T09:55:49Z</time>
      </trkpt>
      <trkpt lat="45.01365" lon="3.58056">
        <ele>912.1</ele>
        <time>2018-06-08T09:55:58Z</time>
      </trkpt>
      <trkpt lat="45.0137" lon="3.58069">
        <ele>911.2</ele>
        <time>2018-06-08T09:56:10Z</time>
      </trkpt>
      <trkpt lat="45.01374" lon="3.5808">
        <ele>910.6</ele>
        <time>2018-06-08T09:56:17Z</time>
      </trkpt>
      <trkpt lat="45.01379" lon="3.58091">
        <ele>910</ele>
        <time>2018-06-08T09:56:23Z</time>
      </trkpt>
      <trkpt lat="45.01385" lon="3.581">
        <ele>909.4</ele>
        <time>2018-06-08T09:56:29Z</time>
      </trkpt>
      <trkpt lat="45.01392" lon="3.58109">
        <ele>908.6</ele>
        <time>2018-06-08T09:56:37Z</time>
      </trkpt>
      <trkpt lat="45.01398" lon="3.58119">
        <ele>907.9</ele>
        <time>2018-06-08T09:56:44Z</time>
      </trkpt>
      <trkpt lat="45.01405" lon="3.58129">
        <ele>907</ele>
        <time>2018-06-08T09:56:52Z</time>
      </trkpt>
      <trkpt lat="45.0141" lon="3.5814">
        <ele>906.3</ele>
        <time>2018-06-08T09:56:59Z</time>
      </trkpt>
      <trkpt lat="45.01417" lon="3.5815">
        <ele>905.5</ele>
        <time>2018-06-08T09:57:09Z</time>
      </trkpt>
      <trkpt lat="45.01424" lon="3.5816">
        <ele>905</ele>
        <time>2018-06-08T09:57:17Z</time>
      </trkpt>
      <trkpt lat="45.0143" lon="3.58169">
        <ele>904.6</ele>
        <time>2018-06-08T09:57:24Z</time>
      </trkpt>
      <trkpt lat="45.01436" lon="3.5818">
        <ele>904</ele>
        <time>2018-06-08T09:57:33Z</time>
      </trkpt>
      <trkpt lat="45.01442" lon="3.58192">
        <ele>903.3</ele>
        <time>2018-06-08T09:57:42Z</time>
      </trkpt>
      <trkpt lat="45.01448" lon="3.58202">
        <ele>902.7</ele>
        <time>2018-06-08T09:57:50Z</time>
      </trkpt>
      <trkpt lat="45.01455" lon="3.58213">
        <ele>902</ele>
        <time>2018-06-08T09:57:59Z</time>
      </trkpt>
      <trkpt lat="45.0146" lon="3.58225">
        <ele>901.4</ele>
        <time>2018-06-08T09:58:07Z</time>
      </trkpt>
      <trkpt lat="45.01464" lon="3.58237">
        <ele>900.8</ele>
        <time>2018-06-08T09:58:15Z</time>
      </trkpt>
      <trkpt lat="45.01467" lon="3.5825">
        <ele>900.2</ele>
        <time>2018-06-08T09:58:23Z</time>
      </trkpt>
      <trkpt lat="45.01471" lon="3.58262">
        <ele>899.4</ele>
        <time>2018-06-08T09:58:31Z</time>
      </trkpt>
      <trkpt lat="45.01476" lon="3.58274">
        <ele>898.8</ele>
        <time>2018-06-08T09:58:38Z</time>
      </trkpt>
      <trkpt lat="45.01482" lon="3.58284">
        <ele>898.1</ele>
        <time>2018-06-08T09:58:46Z</time>
      </trkpt>
      <trkpt lat="45.0149" lon="3.58292">
        <ele>897.1</ele>
        <time>2018-06-08T09:58:55Z</time>
      </trkpt>
      <trkpt lat="45.01499" lon="3.58293">
        <ele>896</ele>
        <time>2018-06-08T09:59:03Z</time>
      </trkpt>
      <trkpt lat="45.01509" lon="3.58297">
        <ele>894.8</ele>
        <time>2018-06-08T09:59:11Z</time>
      </trkpt>
      <trkpt lat="45.01518" lon="3.583">
        <ele>893.5</ele>
        <time>2018-06-08T09:59:19Z</time>
      </trkpt>
      <trkpt lat="45.01527" lon="3.58303">
        <ele>892.5</ele>
        <time>2018-06-08T09:59:26Z</time>
      </trkpt>
      <trkpt lat="45.01535" lon="3.58311">
        <ele>891.5</ele>
        <time>2018-06-08T09:59:33Z</time>
      </trkpt>
      <trkpt lat="45.01544" lon="3.58316">
        <ele>890.5</ele>
        <time>2018-06-08T09:59:41Z</time>
      </trkpt>
      <trkpt lat="45.01553" lon="3.58323">
        <ele>889.5</ele>
        <time>2018-06-08T09:59:48Z</time>
      </trkpt>
      <trkpt lat="45.01561" lon="3.58328">
        <ele>888.7</ele>
        <time>2018-06-08T09:59:55Z</time>
      </trkpt>
      <trkpt lat="45.0157" lon="3.58333">
        <ele>887.9</ele>
        <time>2018-06-08T10:00:03Z</time>
      </trkpt>
      <trkpt lat="45.01578" lon="3.58339">
        <ele>887.2</ele>
        <time>2018-06-08T10:00:11Z</time>
      </trkpt>
      <trkpt lat="45.01586" lon="3.58346">
        <ele>886.7</ele>
        <time>2018-06-08T10:00:19Z</time>
      </trkpt>
      <trkpt lat="45.01595" lon="3.58352">
        <ele>886.1</ele>
        <time>2018-06-08T10:00:27Z</time>
      </trkpt>
      <trkpt lat="45.01604" lon="3.58358">
        <ele>885.7</ele>
        <time>2018-06-08T10:00:35Z</time>
      </trkpt>
      <trkpt lat="45.01613" lon="3.5836">
        <ele>885.4</ele>
        <time>2018-06-08T10:00:44Z</time>
      </trkpt>
      <trkpt lat="45.01622" lon="3.58365">
        <ele>885.1</ele>
        <time>2018-06-08T10:00:52Z</time>
      </trkpt>
      <trkpt lat="45.01628" lon="3.58375">
        <ele>884.6</ele>
        <time>2018-06-08T10:01:00Z</time>
      </trkpt>
      <trkpt lat="45.01622" lon="3.58386">
        <ele>884.1</ele>
        <time>2018-06-08T10:01:07Z</time>
      </trkpt>
      <trkpt lat="45.01614" lon="3.58394">
        <ele>883.5</ele>
        <time>2018-06-08T10:01:17Z</time>
      </trkpt>
      <trkpt lat="45.01606" lon="3.58402">
        <ele>882.8</ele>
        <time>2018-06-08T10:01:25Z</time>
      </trkpt>
      <trkpt lat="45.01597" lon="3.58405">
        <ele>881.6</ele>
        <time>2018-06-08T10:01:33Z</time>
      </trkpt>
      <trkpt lat="45.01587" lon="3.58406">
        <ele>880.8</ele>
        <time>2018-06-08T10:01:41Z</time>
      </trkpt>
      <trkpt lat="45.01578" lon="3.58408">
        <ele>880</ele>
        <time>2018-06-08T10:01:48Z</time>
      </trkpt>
      <trkpt lat="45.01573" lon="3.5842">
        <ele>879.1</ele>
        <time>2018-06-08T10:01:57Z</time>
      </trkpt>
      <trkpt lat="45.01579" lon="3.58429">
        <ele>878.1</ele>
        <time>2018-06-08T10:02:05Z</time>
      </trkpt>
      <trkpt lat="45.01587" lon="3.58435">
        <ele>877</ele>
        <time>2018-06-08T10:02:14Z</time>
      </trkpt>
      <trkpt lat="45.01596" lon="3.58441">
        <ele>875.9</ele>
        <time>2018-06-08T10:02:23Z</time>
      </trkpt>
      <trkpt lat="45.01604" lon="3.58446">
        <ele>874.9</ele>
        <time>2018-06-08T10:02:31Z</time>
      </trkpt>
      <trkpt lat="45.01613" lon="3.58451">
        <ele>874</ele>
        <time>2018-06-08T10:02:37Z</time>
      </trkpt>
      <trkpt lat="45.01621" lon="3.58457">
        <ele>872.7</ele>
        <time>2018-06-08T10:02:46Z</time>
      </trkpt>
      <trkpt lat="45.01629" lon="3.58465">
        <ele>871.2</ele>
        <time>2018-06-08T10:02:56Z</time>
      </trkpt>
      <trkpt lat="45.01637" lon="3.58472">
        <ele>869.9</ele>
        <time>2018-06-08T10:03:05Z</time>
      </trkpt>
      <trkpt lat="45.01645" lon="3.58468">
        <ele>868.6</ele>
        <time>2018-06-08T10:03:17Z</time>
      </trkpt>
      <trkpt lat="45.01654" lon="3.58462">
        <ele>867.1</ele>
        <time>2018-06-08T10:03:52Z</time>
      </trkpt>
      <trkpt lat="45.01661" lon="3.58453">
        <ele>866.4</ele>
        <time>2018-06-08T10:04:01Z</time>
      </trkpt>
      <trkpt lat="45.0167" lon="3.58448">
        <ele>865.7</ele>
        <time>2018-06-08T10:04:10Z</time>
      </trkpt>
      <trkpt lat="45.0168" lon="3.58444">
        <ele>865</ele>
        <time>2018-06-08T10:04:19Z</time>
      </trkpt>
      <trkpt lat="45.01689" lon="3.58438">
        <ele>864</ele>
        <time>2018-06-08T10:04:30Z</time>
      </trkpt>
      <trkpt lat="45.01697" lon="3.58431">
        <ele>863</ele>
        <time>2018-06-08T10:04:39Z</time>
      </trkpt>
      <trkpt lat="45.01705" lon="3.58425">
        <ele>861.7</ele>
        <time>2018-06-08T10:04:49Z</time>
      </trkpt>
      <trkpt lat="45.0171" lon="3.58414">
        <ele>860.2</ele>
        <time>2018-06-08T10:05:01Z</time>
      </trkpt>
      <trkpt lat="45.01715" lon="3.58402">
        <ele>858.2</ele>
        <time>2018-06-08T10:05:14Z</time>
      </trkpt>
      <trkpt lat="45.01725" lon="3.58397">
        <ele>856.6</ele>
        <time>2018-06-08T10:05:24Z</time>
      </trkpt>
      <trkpt lat="45.01734" lon="3.58395">
        <ele>855.4</ele>
        <time>2018-06-08T10:05:32Z</time>
      </trkpt>
      <trkpt lat="45.01743" lon="3.5839">
        <ele>854.4</ele>
        <time>2018-06-08T10:05:39Z</time>
      </trkpt>
      <trkpt lat="45.01751" lon="3.58385">
        <ele>853</ele>
        <time>2018-06-08T10:05:49Z</time>
      </trkpt>
      <trkpt lat="45.01759" lon="3.58378">
        <ele>851.6</ele>
        <time>2018-06-08T10:06:01Z</time>
      </trkpt>
      <trkpt lat="45.01771" lon="3.58369">
        <ele>848.6</ele>
        <time>2018-06-08T10:06:28Z</time>
      </trkpt>
      <trkpt lat="45.01779" lon="3.58363">
        <ele>847.2</ele>
        <time>2018-06-08T10:06:41Z</time>
      </trkpt>
      <trkpt lat="45.01788" lon="3.58359">
        <ele>846.2</ele>
        <time>2018-06-08T10:06:51Z</time>
      </trkpt>
      <trkpt lat="45.01797" lon="3.58355">
        <ele>844.3</ele>
        <time>2018-06-08T10:07:09Z</time>
      </trkpt>
      <trkpt lat="45.01816" lon="3.58351">
        <ele>839</ele>
        <time>2018-06-08T10:07:49Z</time>
      </trkpt>
      <trkpt lat="45.01826" lon="3.58349">
        <ele>836.9</ele>
        <time>2018-06-08T10:08:02Z</time>
      </trkpt>
      <trkpt lat="45.01834" lon="3.58344">
        <ele>835.3</ele>
        <time>2018-06-08T10:08:13Z</time>
      </trkpt>
      <trkpt lat="45.01844" lon="3.5834">
        <ele>833.5</ele>
        <time>2018-06-08T10:08:26Z</time>
      </trkpt>
      <trkpt lat="45.01851" lon="3.58333">
        <ele>831.5</ele>
        <time>2018-06-08T10:08:40Z</time>
      </trkpt>
      <trkpt lat="45.01859" lon="3.58326">
        <ele>830.3</ele>
        <time>2018-06-08T10:08:49Z</time>
      </trkpt>
      <trkpt lat="45.01867" lon="3.5832">
        <ele>829</ele>
        <time>2018-06-08T10:08:58Z</time>
      </trkpt>
      <trkpt lat="45.01874" lon="3.58312">
        <ele>828.6</ele>
        <time>2018-06-08T10:09:01Z</time>
      </trkpt>
      <trkpt lat="45.01882" lon="3.58305">
        <ele>827.3</ele>
        <time>2018-06-08T10:09:10Z</time>
      </trkpt>
      <trkpt lat="45.01893" lon="3.58298">
        <ele>824</ele>
        <time>2018-06-08T10:09:36Z</time>
      </trkpt>
      <trkpt lat="45.01889" lon="3.58286">
        <ele>822.1</ele>
        <time>2018-06-08T10:10:00Z</time>
      </trkpt>
      <trkpt lat="45.01886" lon="3.58274">
        <ele>822.4</ele>
        <time>2018-06-08T10:10:50Z</time>
      </trkpt>
      <trkpt lat="45.01884" lon="3.58286">
        <ele>822.5</ele>
        <time>2018-06-08T10:11:08Z</time>
      </trkpt>
      <trkpt lat="45.01879" lon="3.58298">
        <ele>822.4</ele>
        <time>2018-06-08T10:11:21Z</time>
      </trkpt>
      <trkpt lat="45.01883" lon="3.5831">
        <ele>821.9</ele>
        <time>2018-06-08T10:11:39Z</time>
      </trkpt>
      <trkpt lat="45.01883" lon="3.58323">
        <ele>820.6</ele>
        <time>2018-06-08T10:11:50Z</time>
      </trkpt>
      <trkpt lat="45.0188" lon="3.58336">
        <ele>819.5</ele>
        <time>2018-06-08T10:12:00Z</time>
      </trkpt>
      <trkpt lat="45.01878" lon="3.5835">
        <ele>817.9</ele>
        <time>2018-06-08T10:12:15Z</time>
      </trkpt>
      <trkpt lat="45.01876" lon="3.58363">
        <ele>817</ele>
        <time>2018-06-08T10:12:24Z</time>
      </trkpt>
      <trkpt lat="45.01878" lon="3.58376">
        <ele>815.6</ele>
        <time>2018-06-08T10:12:35Z</time>
      </trkpt>
      <trkpt lat="45.01873" lon="3.58387">
        <ele>814.9</ele>
        <time>2018-06-08T10:12:41Z</time>
      </trkpt>
      <trkpt lat="45.01869" lon="3.58399">
        <ele>813.7</ele>
        <time>2018-06-08T10:12:52Z</time>
      </trkpt>
      <trkpt lat="45.01868" lon="3.58412">
        <ele>812.7</ele>
        <time>2018-06-08T10:13:02Z</time>
      </trkpt>
      <trkpt lat="45.0187" lon="3.58426">
        <ele>811.7</ele>
        <time>2018-06-08T10:13:10Z</time>
      </trkpt>
      <trkpt lat="45.01872" lon="3.58439">
        <ele>811.1</ele>
        <time>2018-06-08T10:13:17Z</time>
      </trkpt>
      <trkpt lat="45.01875" lon="3.58452">
        <ele>810.4</ele>
        <time>2018-06-08T10:13:25Z</time>
      </trkpt>
      <trkpt lat="45.0188" lon="3.58463">
        <ele>809.8</ele>
        <time>2018-06-08T10:13:33Z</time>
      </trkpt>
      <trkpt lat="45.01887" lon="3.58471">
        <ele>809.1</ele>
        <time>2018-06-08T10:13:41Z</time>
      </trkpt>
      <trkpt lat="45.01896" lon="3.58477">
        <ele>808.2</ele>
        <time>2018-06-08T10:13:47Z</time>
      </trkpt>
      <trkpt lat="45.019" lon="3.58489">
        <ele>807</ele>
        <time>2018-06-08T10:13:56Z</time>
      </trkpt>
      <trkpt lat="45.019" lon="3.58502">
        <ele>805.9</ele>
        <time>2018-06-08T10:14:04Z</time>
      </trkpt>
      <trkpt lat="45.01901" lon="3.58516">
        <ele>804.6</ele>
        <time>2018-06-08T10:14:13Z</time>
      </trkpt>
      <trkpt lat="45.019" lon="3.5853">
        <ele>803</ele>
        <time>2018-06-08T10:14:23Z</time>
      </trkpt>
      <trkpt lat="45.01897" lon="3.58542">
        <ele>801.5</ele>
        <time>2018-06-08T10:14:32Z</time>
      </trkpt>
      <trkpt lat="45.01891" lon="3.58552">
        <ele>799.5</ele>
        <time>2018-06-08T10:14:43Z</time>
      </trkpt>
      <trkpt lat="45.01887" lon="3.58565">
        <ele>797.4</ele>
        <time>2018-06-08T10:14:54Z</time>
      </trkpt>
      <trkpt lat="45.0188" lon="3.58574">
        <ele>796.2</ele>
        <time>2018-06-08T10:15:01Z</time>
      </trkpt>
      <trkpt lat="45.01874" lon="3.58585">
        <ele>795</ele>
        <time>2018-06-08T10:15:08Z</time>
      </trkpt>
      <trkpt lat="45.0187" lon="3.58597">
        <ele>793.4</ele>
        <time>2018-06-08T10:15:17Z</time>
      </trkpt>
      <trkpt lat="45.01865" lon="3.58608">
        <ele>791</ele>
        <time>2018-06-08T10:15:29Z</time>
      </trkpt>
      <trkpt lat="45.01861" lon="3.5862">
        <ele>789</ele>
        <time>2018-06-08T10:15:41Z</time>
      </trkpt>
      <trkpt lat="45.01856" lon="3.58634">
        <ele>788.1</ele>
        <time>2018-06-08T10:15:46Z</time>
      </trkpt>
      <trkpt lat="45.01851" lon="3.58646">
        <ele>786.9</ele>
        <time>2018-06-08T10:15:55Z</time>
      </trkpt>
      <trkpt lat="45.01848" lon="3.58658">
        <ele>785.9</ele>
        <time>2018-06-08T10:16:03Z</time>
      </trkpt>
      <trkpt lat="45.01845" lon="3.58672">
        <ele>784.4</ele>
        <time>2018-06-08T10:16:13Z</time>
      </trkpt>
      <trkpt lat="45.01843" lon="3.58685">
        <ele>783.1</ele>
        <time>2018-06-08T10:16:22Z</time>
      </trkpt>
      <trkpt lat="45.01842" lon="3.58699">
        <ele>781.7</ele>
        <time>2018-06-08T10:16:31Z</time>
      </trkpt>
      <trkpt lat="45.01843" lon="3.58713">
        <ele>780.6</ele>
        <time>2018-06-08T10:16:39Z</time>
      </trkpt>
      <trkpt lat="45.01845" lon="3.58726">
        <ele>779</ele>
        <time>2018-06-08T10:16:51Z</time>
      </trkpt>
      <trkpt lat="45.01844" lon="3.58739">
        <ele>777.7</ele>
        <time>2018-06-08T10:16:59Z</time>
      </trkpt>
      <trkpt lat="45.01846" lon="3.58752">
        <ele>776.4</ele>
        <time>2018-06-08T10:17:07Z</time>
      </trkpt>
      <trkpt lat="45.01846" lon="3.58766">
        <ele>773.7</ele>
        <time>2018-06-08T10:17:21Z</time>
      </trkpt>
      <trkpt lat="45.01845" lon="3.5878">
        <ele>771.6</ele>
        <time>2018-06-08T10:17:32Z</time>
      </trkpt>
      <trkpt lat="45.01844" lon="3.58793">
        <ele>769.9</ele>
        <time>2018-06-08T10:17:40Z</time>
      </trkpt>
      <trkpt lat="45.01843" lon="3.58807">
        <ele>768.1</ele>
        <time>2018-06-08T10:17:49Z</time>
      </trkpt>
      <trkpt lat="45.01843" lon="3.58821">
        <ele>766.7</ele>
        <time>2018-06-08T10:17:57Z</time>
      </trkpt>
      <trkpt lat="45.01842" lon="3.58834">
        <ele>765.1</ele>
        <time>2018-06-08T10:18:07Z</time>
      </trkpt>
      <trkpt lat="45.01843" lon="3.58847">
        <ele>763.5</ele>
        <time>2018-06-08T10:18:17Z</time>
      </trkpt>
      <trkpt lat="45.01845" lon="3.58861">
        <ele>761.4</ele>
        <time>2018-06-08T10:18:29Z</time>
      </trkpt>
      <trkpt lat="45.0184" lon="3.58873">
        <ele>760</ele>
        <time>2018-06-08T10:18:36Z</time>
      </trkpt>
      <trkpt lat="45.01837" lon="3.58885">
        <ele>758.5</ele>
        <time>2018-06-08T10:18:45Z</time>
      </trkpt>
      <trkpt lat="45.01835" lon="3.58898">
        <ele>757.3</ele>
        <time>2018-06-08T10:18:52Z</time>
      </trkpt>
      <trkpt lat="45.01834" lon="3.5891">
        <ele>756.5</ele>
        <time>2018-06-08T10:18:57Z</time>
      </trkpt>
      <trkpt lat="45.01833" lon="3.58923">
        <ele>755.7</ele>
        <time>2018-06-08T10:19:02Z</time>
      </trkpt>
      <trkpt lat="45.01838" lon="3.58935">
        <ele>753.7</ele>
        <time>2018-06-08T10:19:14Z</time>
      </trkpt>
      <trkpt lat="45.01845" lon="3.58946">
        <ele>752.4</ele>
        <time>2018-06-08T10:19:25Z</time>
      </trkpt>
      <trkpt lat="45.01853" lon="3.58951">
        <ele>751.2</ele>
        <time>2018-06-08T10:19:33Z</time>
      </trkpt>
      <trkpt lat="45.01861" lon="3.5896">
        <ele>750.2</ele>
        <time>2018-06-08T10:19:40Z</time>
      </trkpt>
      <trkpt lat="45.01871" lon="3.58964">
        <ele>748.6</ele>
        <time>2018-06-08T10:19:51Z</time>
      </trkpt>
      <trkpt lat="45.01879" lon="3.58967">
        <ele>746.4</ele>
        <time>2018-06-08T10:20:03Z</time>
      </trkpt>
      <trkpt lat="45.01889" lon="3.58971">
        <ele>743.6</ele>
        <time>2018-06-08T10:20:20Z</time>
      </trkpt>
      <trkpt lat="45.01897" lon="3.58978">
        <ele>741.7</ele>
        <time>2018-06-08T10:20:30Z</time>
      </trkpt>
      <trkpt lat="45.01905" lon="3.58984">
        <ele>739.6</ele>
        <time>2018-06-08T10:20:41Z</time>
      </trkpt>
      <trkpt lat="45.01914" lon="3.58989">
        <ele>737.6</ele>
        <time>2018-06-08T10:20:52Z</time>
      </trkpt>
      <trkpt lat="45.01924" lon="3.58988">
        <ele>735.4</ele>
        <time>2018-06-08T10:21:03Z</time>
      </trkpt>
      <trkpt lat="45.01933" lon="3.5899">
        <ele>733.4</ele>
        <time>2018-06-08T10:21:14Z</time>
      </trkpt>
      <trkpt lat="45.01942" lon="3.58994">
        <ele>732.1</ele>
        <time>2018-06-08T10:21:22Z</time>
      </trkpt>
      <trkpt lat="45.01952" lon="3.58989">
        <ele>730.4</ele>
        <time>2018-06-08T10:21:33Z</time>
      </trkpt>
      <trkpt lat="45.01962" lon="3.58986">
        <ele>728.4</ele>
        <time>2018-06-08T10:21:45Z</time>
      </trkpt>
      <trkpt lat="45.01971" lon="3.58982">
        <ele>726.5</ele>
        <time>2018-06-08T10:21:56Z</time>
      </trkpt>
      <trkpt lat="45.0198" lon="3.5898">
        <ele>724.3</ele>
        <time>2018-06-08T10:22:08Z</time>
      </trkpt>
      <trkpt lat="45.01989" lon="3.58976">
        <ele>722.2</ele>
        <time>2018-06-08T10:22:20Z</time>
      </trkpt>
      <trkpt lat="45.0199" lon="3.58963">
        <ele>718.9</ele>
        <time>2018-06-08T10:24:18Z</time>
      </trkpt>
      <trkpt lat="45.01996" lon="3.58978">
        <ele>718.2</ele>
        <time>2018-06-08T10:30:37Z</time>
      </trkpt>
      <trkpt lat="45.02006" lon="3.58976">
        <ele>717.5</ele>
        <time>2018-06-08T10:30:44Z</time>
      </trkpt>
      <trkpt lat="45.02015" lon="3.58975">
        <ele>716.8</ele>
        <time>2018-06-08T10:30:50Z</time>
      </trkpt>
      <trkpt lat="45.02025" lon="3.58976">
        <ele>716</ele>
        <time>2018-06-08T10:30:57Z</time>
      </trkpt>
      <trkpt lat="45.02035" lon="3.58978">
        <ele>714.6</ele>
        <time>2018-06-08T10:31:07Z</time>
      </trkpt>
      <trkpt lat="45.02044" lon="3.58977">
        <ele>713.5</ele>
        <time>2018-06-08T10:31:16Z</time>
      </trkpt>
      <trkpt lat="45.02054" lon="3.58976">
        <ele>712</ele>
        <time>2018-06-08T10:31:26Z</time>
      </trkpt>
      <trkpt lat="45.02064" lon="3.58977">
        <ele>710.4</ele>
        <time>2018-06-08T10:31:38Z</time>
      </trkpt>
      <trkpt lat="45.02073" lon="3.58978">
        <ele>709.2</ele>
        <time>2018-06-08T10:31:47Z</time>
      </trkpt>
      <trkpt lat="45.02083" lon="3.58977">
        <ele>708.3</ele>
        <time>2018-06-08T10:31:54Z</time>
      </trkpt>
      <trkpt lat="45.02092" lon="3.58979">
        <ele>707.5</ele>
        <time>2018-06-08T10:32:02Z</time>
      </trkpt>
      <trkpt lat="45.02102" lon="3.58982">
        <ele>706.2</ele>
        <time>2018-06-08T10:32:12Z</time>
      </trkpt>
      <trkpt lat="45.02111" lon="3.58984">
        <ele>704.7</ele>
        <time>2018-06-08T10:32:23Z</time>
      </trkpt>
      <trkpt lat="45.0212" lon="3.5898">
        <ele>703.4</ele>
        <time>2018-06-08T10:32:34Z</time>
      </trkpt>
      <trkpt lat="45.02128" lon="3.58972">
        <ele>701.1</ele>
        <time>2018-06-08T10:32:48Z</time>
      </trkpt>
      <trkpt lat="45.02138" lon="3.5897">
        <ele>699.6</ele>
        <time>2018-06-08T10:32:57Z</time>
      </trkpt>
      <trkpt lat="45.02147" lon="3.58971">
        <ele>698.1</ele>
        <time>2018-06-08T10:33:06Z</time>
      </trkpt>
      <trkpt lat="45.02156" lon="3.58972">
        <ele>696.2</ele>
        <time>2018-06-08T10:33:16Z</time>
      </trkpt>
      <trkpt lat="45.02165" lon="3.5897">
        <ele>695.1</ele>
        <time>2018-06-08T10:33:22Z</time>
      </trkpt>
      <trkpt lat="45.02174" lon="3.58964">
        <ele>693.7</ele>
        <time>2018-06-08T10:33:30Z</time>
      </trkpt>
      <trkpt lat="45.02179" lon="3.58954">
        <ele>691.6</ele>
        <time>2018-06-08T10:33:41Z</time>
      </trkpt>
      <trkpt lat="45.02203" lon="3.58947">
        <ele>684</ele>
        <time>2018-06-08T10:34:16Z</time>
      </trkpt>
      <trkpt lat="45.0221" lon="3.58939">
        <ele>683.2</ele>
        <time>2018-06-08T10:34:24Z</time>
      </trkpt>
      <trkpt lat="45.0222" lon="3.58935">
        <ele>682</ele>
        <time>2018-06-08T10:34:30Z</time>
      </trkpt>
      <trkpt lat="45.02229" lon="3.58935">
        <ele>681.1</ele>
        <time>2018-06-08T10:34:35Z</time>
      </trkpt>
      <trkpt lat="45.02237" lon="3.58929">
        <ele>680</ele>
        <time>2018-06-08T10:34:42Z</time>
      </trkpt>
      <trkpt lat="45.02244" lon="3.5892">
        <ele>679</ele>
        <time>2018-06-08T10:34:48Z</time>
      </trkpt>
      <trkpt lat="45.02252" lon="3.58913">
        <ele>677.4</ele>
        <time>2018-06-08T10:34:56Z</time>
      </trkpt>
      <trkpt lat="45.0226" lon="3.58904">
        <ele>676.1</ele>
        <time>2018-06-08T10:35:04Z</time>
      </trkpt>
      <trkpt lat="45.0226" lon="3.58891">
        <ele>675.1</ele>
        <time>2018-06-08T10:35:10Z</time>
      </trkpt>
      <trkpt lat="45.0226" lon="3.58878">
        <ele>674.1</ele>
        <time>2018-06-08T10:35:16Z</time>
      </trkpt>
      <trkpt lat="45.02257" lon="3.58865">
        <ele>672.8</ele>
        <time>2018-06-08T10:35:25Z</time>
      </trkpt>
      <trkpt lat="45.02251" lon="3.58854">
        <ele>671.3</ele>
        <time>2018-06-08T10:35:34Z</time>
      </trkpt>
      <trkpt lat="45.02257" lon="3.58844">
        <ele>669.9</ele>
        <time>2018-06-08T10:35:42Z</time>
      </trkpt>
      <trkpt lat="45.02266" lon="3.58849">
        <ele>668</ele>
        <time>2018-06-08T10:35:51Z</time>
      </trkpt>
      <trkpt lat="45.02271" lon="3.58859">
        <ele>666.1</ele>
        <time>2018-06-08T10:36:00Z</time>
      </trkpt>
      <trkpt lat="45.02281" lon="3.58862">
        <ele>664.5</ele>
        <time>2018-06-08T10:36:08Z</time>
      </trkpt>
      <trkpt lat="45.0229" lon="3.58867">
        <ele>662.7</ele>
        <time>2018-06-08T10:36:16Z</time>
      </trkpt>
      <trkpt lat="45.02298" lon="3.58877">
        <ele>659.7</ele>
        <time>2018-06-08T10:36:31Z</time>
      </trkpt>
      <trkpt lat="45.02303" lon="3.58887">
        <ele>658</ele>
        <time>2018-06-08T10:36:39Z</time>
      </trkpt>
      <trkpt lat="45.02313" lon="3.58883">
        <ele>656.8</ele>
        <time>2018-06-08T10:36:44Z</time>
      </trkpt>
      <trkpt lat="45.02322" lon="3.58883">
        <ele>654.3</ele>
        <time>2018-06-08T10:36:54Z</time>
      </trkpt>
      <trkpt lat="45.02323" lon="3.58897">
        <ele>652</ele>
        <time>2018-06-08T10:37:03Z</time>
      </trkpt>
      <trkpt lat="45.02326" lon="3.5891">
        <ele>649.9</ele>
        <time>2018-06-08T10:37:12Z</time>
      </trkpt>
      <trkpt lat="45.02327" lon="3.58923">
        <ele>647.7</ele>
        <time>2018-06-08T10:37:22Z</time>
      </trkpt>
      <trkpt lat="45.02325" lon="3.58936">
        <ele>645.3</ele>
        <time>2018-06-08T10:37:32Z</time>
      </trkpt>
      <trkpt lat="45.02324" lon="3.58949">
        <ele>643.5</ele>
        <time>2018-06-08T10:37:41Z</time>
      </trkpt>
      <trkpt lat="45.02319" lon="3.58961">
        <ele>642.1</ele>
        <time>2018-06-08T10:37:48Z</time>
      </trkpt>
      <trkpt lat="45.02314" lon="3.58972">
        <ele>640.7</ele>
        <time>2018-06-08T10:37:56Z</time>
      </trkpt>
      <trkpt lat="45.0231" lon="3.58987">
        <ele>638.5</ele>
        <time>2018-06-08T10:38:07Z</time>
      </trkpt>
      <trkpt lat="45.02308" lon="3.59">
        <ele>636.5</ele>
        <time>2018-06-08T10:38:17Z</time>
      </trkpt>
      <trkpt lat="45.02305" lon="3.59012">
        <ele>634.8</ele>
        <time>2018-06-08T10:38:25Z</time>
      </trkpt>
      <trkpt lat="45.02307" lon="3.59025">
        <ele>632.8</ele>
        <time>2018-06-08T10:38:35Z</time>
      </trkpt>
      <trkpt lat="45.02309" lon="3.59039">
        <ele>630.7</ele>
        <time>2018-06-08T10:38:46Z</time>
      </trkpt>
      <trkpt lat="45.02315" lon="3.59051">
        <ele>629.1</ele>
        <time>2018-06-08T10:38:55Z</time>
      </trkpt>
      <trkpt lat="45.02318" lon="3.59063">
        <ele>626.8</ele>
        <time>2018-06-08T10:39:07Z</time>
      </trkpt>
      <trkpt lat="45.02323" lon="3.59074">
        <ele>624.3</ele>
        <time>2018-06-08T10:39:18Z</time>
      </trkpt>
      <trkpt lat="45.02332" lon="3.59077">
        <ele>622.9</ele>
        <time>2018-06-08T10:39:25Z</time>
      </trkpt>
      <trkpt lat="45.02341" lon="3.59074">
        <ele>620.5</ele>
        <time>2018-06-08T10:39:35Z</time>
      </trkpt>
      <trkpt lat="45.02351" lon="3.59077">
        <ele>618.4</ele>
        <time>2018-06-08T10:39:45Z</time>
      </trkpt>
      <trkpt lat="45.0236" lon="3.59075">
        <ele>616.7</ele>
        <time>2018-06-08T10:39:53Z</time>
      </trkpt>
      <trkpt lat="45.02369" lon="3.59077">
        <ele>614.8</ele>
        <time>2018-06-08T10:40:03Z</time>
      </trkpt>
      <trkpt lat="45.02379" lon="3.59078">
        <ele>612.6</ele>
        <time>2018-06-08T10:40:13Z</time>
      </trkpt>
      <trkpt lat="45.02388" lon="3.59081">
        <ele>610.7</ele>
        <time>2018-06-08T10:40:22Z</time>
      </trkpt>
      <trkpt lat="45.02394" lon="3.59092">
        <ele>608.6</ele>
        <time>2018-06-08T10:40:33Z</time>
      </trkpt>
      <trkpt lat="45.02401" lon="3.59101">
        <ele>606.7</ele>
        <time>2018-06-08T10:40:42Z</time>
      </trkpt>
      <trkpt lat="45.02411" lon="3.59106">
        <ele>605.7</ele>
        <time>2018-06-08T10:40:47Z</time>
      </trkpt>
      <trkpt lat="45.02415" lon="3.59119">
        <ele>603.9</ele>
        <time>2018-06-08T10:40:57Z</time>
      </trkpt>
      <trkpt lat="45.02422" lon="3.59129">
        <ele>602.4</ele>
        <time>2018-06-08T10:41:06Z</time>
      </trkpt>
      <trkpt lat="45.02428" lon="3.59139">
        <ele>600.7</ele>
        <time>2018-06-08T10:41:15Z</time>
      </trkpt>
      <trkpt lat="45.02437" lon="3.59141">
        <ele>598.8</ele>
        <time>2018-06-08T10:41:24Z</time>
      </trkpt>
      <trkpt lat="45.02446" lon="3.59138">
        <ele>597.7</ele>
        <time>2018-06-08T10:41:29Z</time>
      </trkpt>
      <trkpt lat="45.02455" lon="3.59132">
        <ele>596.2</ele>
        <time>2018-06-08T10:41:36Z</time>
      </trkpt>
      <trkpt lat="45.02464" lon="3.59133">
        <ele>592.2</ele>
        <time>2018-06-08T10:41:53Z</time>
      </trkpt>
      <trkpt lat="45.0247" lon="3.59142">
        <ele>589.8</ele>
        <time>2018-06-08T10:42:03Z</time>
      </trkpt>
      <trkpt lat="45.02478" lon="3.5915">
        <ele>588.2</ele>
        <time>2018-06-08T10:42:11Z</time>
      </trkpt>
      <trkpt lat="45.02487" lon="3.59151">
        <ele>586.5</ele>
        <time>2018-06-08T10:42:20Z</time>
      </trkpt>
      <trkpt lat="45.02496" lon="3.59149">
        <ele>583.4</ele>
        <time>2018-06-08T10:44:02Z</time>
      </trkpt>
      <trkpt lat="45.02501" lon="3.5916">
        <ele>581.3</ele>
        <time>2018-06-08T10:44:32Z</time>
      </trkpt>
      <trkpt lat="45.02502" lon="3.59173">
        <ele>580.3</ele>
        <time>2018-06-08T10:44:46Z</time>
      </trkpt>
      <trkpt lat="45.02499" lon="3.59185">
        <ele>579</ele>
        <time>2018-06-08T10:44:55Z</time>
      </trkpt>
      <trkpt lat="45.02508" lon="3.59184">
        <ele>574.2</ele>
        <time>2018-06-08T10:46:49Z</time>
      </trkpt>
      <trkpt lat="45.02513" lon="3.59173">
        <ele>573.8</ele>
        <time>2018-06-08T10:47:02Z</time>
      </trkpt>
      <trkpt lat="45.02521" lon="3.59166">
        <ele>572.9</ele>
        <time>2018-06-08T10:47:12Z</time>
      </trkpt>
      <trkpt lat="45.02528" lon="3.59157">
        <ele>571.4</ele>
        <time>2018-06-08T10:47:22Z</time>
      </trkpt>
      <trkpt lat="45.02533" lon="3.59145">
        <ele>569.6</ele>
        <time>2018-06-08T10:47:34Z</time>
      </trkpt>
      <trkpt lat="45.02537" lon="3.59133">
        <ele>568</ele>
        <time>2018-06-08T10:47:43Z</time>
      </trkpt>
      <trkpt lat="45.02547" lon="3.59131">
        <ele>566.8</ele>
        <time>2018-06-08T10:47:52Z</time>
      </trkpt>
      <trkpt lat="45.02557" lon="3.5913">
        <ele>566.2</ele>
        <time>2018-06-08T10:48:00Z</time>
      </trkpt>
      <trkpt lat="45.02566" lon="3.59129">
        <ele>565.7</ele>
        <time>2018-06-08T10:48:08Z</time>
      </trkpt>
      <trkpt lat="45.02574" lon="3.59132">
        <ele>565.2</ele>
        <time>2018-06-08T10:48:17Z</time>
      </trkpt>
      <trkpt lat="45.02584" lon="3.59134">
        <ele>564.8</ele>
        <time>2018-06-08T10:48:26Z</time>
      </trkpt>
      <trkpt lat="45.02593" lon="3.59136">
        <ele>564.5</ele>
        <time>2018-06-08T10:48:33Z</time>
      </trkpt>
      <trkpt lat="45.02602" lon="3.59138">
        <ele>564</ele>
        <time>2018-06-08T10:48:41Z</time>
      </trkpt>
      <trkpt lat="45.02611" lon="3.59143">
        <ele>563.7</ele>
        <time>2018-06-08T10:48:49Z</time>
      </trkpt>
      <trkpt lat="45.0262" lon="3.5915">
        <ele>563.4</ele>
        <time>2018-06-08T10:48:57Z</time>
      </trkpt>
      <trkpt lat="45.02629" lon="3.59155">
        <ele>563</ele>
        <time>2018-06-08T10:49:05Z</time>
      </trkpt>
      <trkpt lat="45.02638" lon="3.59152">
        <ele>562.6</ele>
        <time>2018-06-08T10:49:12Z</time>
      </trkpt>
      <trkpt lat="45.02647" lon="3.59145">
        <ele>562.1</ele>
        <time>2018-06-08T10:49:24Z</time>
      </trkpt>
      <trkpt lat="45.02656" lon="3.59142">
        <ele>561.9</ele>
        <time>2018-06-08T10:49:31Z</time>
      </trkpt>
      <trkpt lat="45.02665" lon="3.59137">
        <ele>561.7</ele>
        <time>2018-06-08T10:49:38Z</time>
      </trkpt>
      <trkpt lat="45.02674" lon="3.59138">
        <ele>561.6</ele>
        <time>2018-06-08T10:49:45Z</time>
      </trkpt>
      <trkpt lat="45.02683" lon="3.59142">
        <ele>561.4</ele>
        <time>2018-06-08T10:49:54Z</time>
      </trkpt>
      <trkpt lat="45.02692" lon="3.59146">
        <ele>561.3</ele>
        <time>2018-06-08T10:50:08Z</time>
      </trkpt>
      <trkpt lat="45.02701" lon="3.59153">
        <ele>560.8</ele>
        <time>2018-06-08T10:50:19Z</time>
      </trkpt>
      <trkpt lat="45.02709" lon="3.59161">
        <ele>560.3</ele>
        <time>2018-06-08T10:50:29Z</time>
      </trkpt>
      <trkpt lat="45.02716" lon="3.59171">
        <ele>559.9</ele>
        <time>2018-06-08T10:50:38Z</time>
      </trkpt>
      <trkpt lat="45.02723" lon="3.59179">
        <ele>559.6</ele>
        <time>2018-06-08T10:50:45Z</time>
      </trkpt>
      <trkpt lat="45.0273" lon="3.59189">
        <ele>559.3</ele>
        <time>2018-06-08T10:50:56Z</time>
      </trkpt>
      <trkpt lat="45.02736" lon="3.59201">
        <ele>558.9</ele>
        <time>2018-06-08T10:51:04Z</time>
      </trkpt>
      <trkpt lat="45.02743" lon="3.5921">
        <ele>558.4</ele>
        <time>2018-06-08T10:51:15Z</time>
      </trkpt>
      <trkpt lat="45.02751" lon="3.59215">
        <ele>558.2</ele>
        <time>2018-06-08T10:51:22Z</time>
      </trkpt>
      <trkpt lat="45.0276" lon="3.59218">
        <ele>558</ele>
        <time>2018-06-08T10:51:29Z</time>
      </trkpt>
      <trkpt lat="45.02762" lon="3.59231">
        <ele>557.3</ele>
        <time>2018-06-08T10:52:54Z</time>
      </trkpt>
      <trkpt lat="45.02761" lon="3.59245">
        <ele>557.3</ele>
        <time>2018-06-08T10:53:03Z</time>
      </trkpt>
      <trkpt lat="45.02764" lon="3.59257">
        <ele>557.3</ele>
        <time>2018-06-08T10:53:11Z</time>
      </trkpt>
      <trkpt lat="45.02767" lon="3.5927">
        <ele>557.2</ele>
        <time>2018-06-08T10:53:22Z</time>
      </trkpt>
      <trkpt lat="45.02771" lon="3.59282">
        <ele>557.2</ele>
        <time>2018-06-08T10:53:32Z</time>
      </trkpt>
      <trkpt lat="45.02774" lon="3.59294">
        <ele>557</ele>
        <time>2018-06-08T10:53:42Z</time>
      </trkpt>
      <trkpt lat="45.02778" lon="3.59307">
        <ele>556.9</ele>
        <time>2018-06-08T10:53:51Z</time>
      </trkpt>
      <trkpt lat="45.02783" lon="3.59319">
        <ele>556.7</ele>
        <time>2018-06-08T10:54:01Z</time>
      </trkpt>
      <trkpt lat="45.02782" lon="3.59332">
        <ele>556.6</ele>
        <time>2018-06-08T10:54:13Z</time>
      </trkpt>
      <trkpt lat="45.02784" lon="3.59346">
        <ele>556.4</ele>
        <time>2018-06-08T10:54:22Z</time>
      </trkpt>
      <trkpt lat="45.02784" lon="3.5936">
        <ele>556.2</ele>
        <time>2018-06-08T10:54:33Z</time>
      </trkpt>
      <trkpt lat="45.02782" lon="3.59373">
        <ele>556.2</ele>
        <time>2018-06-08T10:54:45Z</time>
      </trkpt>
      <trkpt lat="45.02781" lon="3.59386">
        <ele>556.2</ele>
        <time>2018-06-08T10:54:58Z</time>
      </trkpt>
      <trkpt lat="45.0279" lon="3.59393">
        <ele>556.3</ele>
        <time>2018-06-08T10:55:32Z</time>
      </trkpt>
      <trkpt lat="45.02799" lon="3.59398">
        <ele>556.4</ele>
        <time>2018-06-08T10:55:55Z</time>
      </trkpt>
      <trkpt lat="45.02808" lon="3.59402">
        <ele>556.3</ele>
        <time>2018-06-08T10:56:04Z</time>
      </trkpt>
      <trkpt lat="45.02817" lon="3.59404">
        <ele>555.8</ele>
        <time>2018-06-08T10:56:30Z</time>
      </trkpt>
      <trkpt lat="45.02826" lon="3.59412">
        <ele>555.6</ele>
        <time>2018-06-08T10:56:42Z</time>
      </trkpt>
      <trkpt lat="45.02835" lon="3.59416">
        <ele>555.3</ele>
        <time>2018-06-08T10:56:50Z</time>
      </trkpt>
      <trkpt lat="45.02842" lon="3.59425">
        <ele>555</ele>
        <time>2018-06-08T10:57:04Z</time>
      </trkpt>
      <trkpt lat="45.02852" lon="3.5943">
        <ele>554.7</ele>
        <time>2018-06-08T10:57:16Z</time>
      </trkpt>
      <trkpt lat="45.02861" lon="3.59433">
        <ele>554.6</ele>
        <time>2018-06-08T10:57:25Z</time>
      </trkpt>
      <trkpt lat="45.02869" lon="3.5944">
        <ele>554.6</ele>
        <time>2018-06-08T10:57:36Z</time>
      </trkpt>
      <trkpt lat="45.02875" lon="3.59451">
        <ele>554.5</ele>
        <time>2018-06-08T10:57:45Z</time>
      </trkpt>
      <trkpt lat="45.0288" lon="3.59462">
        <ele>554.5</ele>
        <time>2018-06-08T10:57:53Z</time>
      </trkpt>
      <trkpt lat="45.02883" lon="3.59475">
        <ele>554.5</ele>
        <time>2018-06-08T10:58:01Z</time>
      </trkpt>
      <trkpt lat="45.0289" lon="3.59484">
        <ele>554.2</ele>
        <time>2018-06-08T10:58:09Z</time>
      </trkpt>
      <trkpt lat="45.02896" lon="3.59496">
        <ele>553.5</ele>
        <time>2018-06-08T10:58:17Z</time>
      </trkpt>
      <trkpt lat="45.02897" lon="3.5951">
        <ele>552.8</ele>
        <time>2018-06-08T10:58:25Z</time>
      </trkpt>
      <trkpt lat="45.02898" lon="3.59523">
        <ele>552.3</ele>
        <time>2018-06-08T10:58:33Z</time>
      </trkpt>
      <trkpt lat="45.02901" lon="3.59536">
        <ele>552</ele>
        <time>2018-06-08T10:58:42Z</time>
      </trkpt>
      <trkpt lat="45.02908" lon="3.59546">
        <ele>551.8</ele>
        <time>2018-06-08T10:58:52Z</time>
      </trkpt>
      <trkpt lat="45.0291" lon="3.59558">
        <ele>551.6</ele>
        <time>2018-06-08T10:59:00Z</time>
      </trkpt>
      <trkpt lat="45.02917" lon="3.59567">
        <ele>551.3</ele>
        <time>2018-06-08T10:59:07Z</time>
      </trkpt>
      <trkpt lat="45.02911" lon="3.59577">
        <ele>550.5</ele>
        <time>2018-06-08T10:59:44Z</time>
      </trkpt>
      <trkpt lat="45.02902" lon="3.5958">
        <ele>550.3</ele>
        <time>2018-06-08T10:59:59Z</time>
      </trkpt>
      <trkpt lat="45.02911" lon="3.59576">
        <ele>550</ele>
        <time>2018-06-08T11:02:21Z</time>
      </trkpt>
      <trkpt lat="45.02923" lon="3.59581">
        <ele>550</ele>
        <time>2018-06-08T11:04:51Z</time>
      </trkpt>
      <trkpt lat="45.02921" lon="3.59594">
        <ele>550.1</ele>
        <time>2018-06-08T11:05:29Z</time>
      </trkpt>
      <trkpt lat="45.02911" lon="3.59594">
        <ele>550.1</ele>
        <time>2018-06-08T11:07:41Z</time>
      </trkpt>
      <trkpt lat="45.02917" lon="3.59605">
        <ele>550.1</ele>
        <time>2018-06-08T11:09:32Z</time>
      </trkpt>
      <trkpt lat="45.02928" lon="3.59598">
        <ele>550.4</ele>
        <time>2018-06-08T11:09:59Z</time>
      </trkpt>
      <trkpt lat="45.02926" lon="3.59583">
        <ele>550.7</ele>
        <time>2018-06-08T11:11:41Z</time>
      </trkpt>
      <trkpt lat="45.02918" lon="3.5959">
        <ele>550.7</ele>
        <time>2018-06-08T11:11:52Z</time>
      </trkpt>
      <trkpt lat="45.02926" lon="3.59597">
        <ele>550.8</ele>
        <time>2018-06-08T11:13:52Z</time>
      </trkpt>
      <trkpt lat="45.02926" lon="3.59577">
        <ele>551</ele>
        <time>2018-06-08T11:16:10Z</time>
      </trkpt>
      <trkpt lat="45.02925" lon="3.59598">
        <ele>551.2</ele>
        <time>2018-06-08T11:19:10Z</time>
      </trkpt>
      <trkpt lat="45.02919" lon="3.59585">
        <ele>551.2</ele>
        <time>2018-06-08T11:23:47Z</time>
      </trkpt>
      <trkpt lat="45.0291" lon="3.59581">
        <ele>550.1</ele>
        <time>2018-06-08T11:28:41Z</time>
      </trkpt>
      <trkpt lat="45.02906" lon="3.59568">
        <ele>548.6</ele>
        <time>2018-06-08T11:34:44Z</time>
      </trkpt>
      <trkpt lat="45.029" lon="3.59557">
        <ele>547.4</ele>
        <time>2018-06-08T11:37:19Z</time>
      </trkpt>
      <trkpt lat="45.02893" lon="3.59549">
        <ele>547.3</ele>
        <time>2018-06-08T11:37:31Z</time>
      </trkpt>
      <trkpt lat="45.02891" lon="3.59535">
        <ele>547.3</ele>
        <time>2018-06-08T11:37:41Z</time>
      </trkpt>
      <trkpt lat="45.02887" lon="3.59524">
        <ele>547.4</ele>
        <time>2018-06-08T11:37:52Z</time>
      </trkpt>
      <trkpt lat="45.02882" lon="3.59512">
        <ele>547.6</ele>
        <time>2018-06-08T11:38:03Z</time>
      </trkpt>
      <trkpt lat="45.02888" lon="3.59522">
        <ele>547.7</ele>
        <time>2018-06-08T11:39:55Z</time>
      </trkpt>
      <trkpt lat="45.02898" lon="3.5952">
        <ele>547.6</ele>
        <time>2018-06-08T11:40:02Z</time>
      </trkpt>
      <trkpt lat="45.02899" lon="3.59506">
        <ele>547.6</ele>
        <time>2018-06-08T11:40:07Z</time>
      </trkpt>
      <trkpt lat="45.02895" lon="3.5952">
        <ele>547.3</ele>
        <time>2018-06-08T11:41:10Z</time>
      </trkpt>
      <trkpt lat="45.02893" lon="3.59506">
        <ele>547.1</ele>
        <time>2018-06-08T11:41:29Z</time>
      </trkpt>
      <trkpt lat="45.0289" lon="3.59494">
        <ele>546.9</ele>
        <time>2018-06-08T11:41:40Z</time>
      </trkpt>
      <trkpt lat="45.02886" lon="3.59483">
        <ele>546.8</ele>
        <time>2018-06-08T11:42:00Z</time>
      </trkpt>
      <trkpt lat="45.02879" lon="3.59473">
        <ele>547.2</ele>
        <time>2018-06-08T11:42:15Z</time>
      </trkpt>
      <trkpt lat="45.02875" lon="3.59461">
        <ele>548</ele>
        <time>2018-06-08T11:42:32Z</time>
      </trkpt>
      <trkpt lat="45.02885" lon="3.59461">
        <ele>548.8</ele>
        <time>2018-06-08T11:42:45Z</time>
      </trkpt>
      <trkpt lat="45.02895" lon="3.59467">
        <ele>549.1</ele>
        <time>2018-06-08T11:45:17Z</time>
      </trkpt>
      <trkpt lat="45.02905" lon="3.59468">
        <ele>549.3</ele>
        <time>2018-06-08T11:45:30Z</time>
      </trkpt>
      <trkpt lat="45.02914" lon="3.5947">
        <ele>549.9</ele>
        <time>2018-06-08T11:45:43Z</time>
      </trkpt>
      <trkpt lat="45.02923" lon="3.59468">
        <ele>550.7</ele>
        <time>2018-06-08T11:45:56Z</time>
      </trkpt>
      <trkpt lat="45.02933" lon="3.59466">
        <ele>551</ele>
        <time>2018-06-08T11:46:06Z</time>
      </trkpt>
      <trkpt lat="45.02942" lon="3.59466">
        <ele>551.1</ele>
        <time>2018-06-08T11:46:15Z</time>
      </trkpt>
      <trkpt lat="45.02951" lon="3.59461">
        <ele>550.9</ele>
        <time>2018-06-08T11:46:28Z</time>
      </trkpt>
      <trkpt lat="45.02959" lon="3.59455">
        <ele>550.4</ele>
        <time>2018-06-08T11:46:49Z</time>
      </trkpt>
      <trkpt lat="45.02963" lon="3.59442">
        <ele>550.1</ele>
        <time>2018-06-08T11:47:13Z</time>
      </trkpt>
      <trkpt lat="45.02963" lon="3.59429">
        <ele>550.8</ele>
        <time>2018-06-08T11:47:30Z</time>
      </trkpt>
      <trkpt lat="45.02961" lon="3.59416">
        <ele>552.1</ele>
        <time>2018-06-08T11:47:44Z</time>
      </trkpt>
      <trkpt lat="45.02961" lon="3.59403">
        <ele>553.7</ele>
        <time>2018-06-08T11:47:59Z</time>
      </trkpt>
      <trkpt lat="45.02964" lon="3.59391">
        <ele>555.9</ele>
        <time>2018-06-08T11:48:18Z</time>
      </trkpt>
      <trkpt lat="45.02972" lon="3.59384">
        <ele>557.5</ele>
        <time>2018-06-08T11:48:33Z</time>
      </trkpt>
      <trkpt lat="45.0298" lon="3.59378">
        <ele>559</ele>
        <time>2018-06-08T11:48:46Z</time>
      </trkpt>
      <trkpt lat="45.02986" lon="3.59368">
        <ele>560.6</ele>
        <time>2018-06-08T11:49:02Z</time>
      </trkpt>
      <trkpt lat="45.02992" lon="3.59358">
        <ele>562</ele>
        <time>2018-06-08T11:49:16Z</time>
      </trkpt>
      <trkpt lat="45.02996" lon="3.59347">
        <ele>563.4</ele>
        <time>2018-06-08T11:49:28Z</time>
      </trkpt>
      <trkpt lat="45.03003" lon="3.59338">
        <ele>564.7</ele>
        <time>2018-06-08T11:49:43Z</time>
      </trkpt>
      <trkpt lat="45.03012" lon="3.59334">
        <ele>566.4</ele>
        <time>2018-06-08T11:49:59Z</time>
      </trkpt>
      <trkpt lat="45.0302" lon="3.5933">
        <ele>567.9</ele>
        <time>2018-06-08T11:50:13Z</time>
      </trkpt>
      <trkpt lat="45.03028" lon="3.59323">
        <ele>569.3</ele>
        <time>2018-06-08T11:50:27Z</time>
      </trkpt>
      <trkpt lat="45.03037" lon="3.5932">
        <ele>570.6</ele>
        <time>2018-06-08T11:50:40Z</time>
      </trkpt>
      <trkpt lat="45.03045" lon="3.59314">
        <ele>571.7</ele>
        <time>2018-06-08T11:50:53Z</time>
      </trkpt>
      <trkpt lat="45.03053" lon="3.59309">
        <ele>572.8</ele>
        <time>2018-06-08T11:51:06Z</time>
      </trkpt>
      <trkpt lat="45.03062" lon="3.59306">
        <ele>574.5</ele>
        <time>2018-06-08T11:51:22Z</time>
      </trkpt>
      <trkpt lat="45.03071" lon="3.59305">
        <ele>576.4</ele>
        <time>2018-06-08T11:51:38Z</time>
      </trkpt>
      <trkpt lat="45.03079" lon="3.59313">
        <ele>577.6</ele>
        <time>2018-06-08T11:51:48Z</time>
      </trkpt>
      <trkpt lat="45.03088" lon="3.59317">
        <ele>579</ele>
        <time>2018-06-08T11:52:01Z</time>
      </trkpt>
      <trkpt lat="45.03095" lon="3.59326">
        <ele>580.7</ele>
        <time>2018-06-08T11:52:18Z</time>
      </trkpt>
      <trkpt lat="45.03103" lon="3.59334">
        <ele>582.7</ele>
        <time>2018-06-08T11:52:36Z</time>
      </trkpt>
      <trkpt lat="45.03112" lon="3.59337">
        <ele>584.4</ele>
        <time>2018-06-08T11:52:51Z</time>
      </trkpt>
      <trkpt lat="45.03121" lon="3.59341">
        <ele>585.9</ele>
        <time>2018-06-08T11:53:03Z</time>
      </trkpt>
      <trkpt lat="45.03128" lon="3.59349">
        <ele>587.2</ele>
        <time>2018-06-08T11:53:14Z</time>
      </trkpt>
      <trkpt lat="45.03136" lon="3.59356">
        <ele>588.5</ele>
        <time>2018-06-08T11:53:27Z</time>
      </trkpt>
      <trkpt lat="45.03145" lon="3.59363">
        <ele>590.4</ele>
        <time>2018-06-08T11:53:44Z</time>
      </trkpt>
      <trkpt lat="45.03154" lon="3.59366">
        <ele>591.8</ele>
        <time>2018-06-08T11:53:58Z</time>
      </trkpt>
      <trkpt lat="45.03164" lon="3.59365">
        <ele>593</ele>
        <time>2018-06-08T11:54:12Z</time>
      </trkpt>
      <trkpt lat="45.03173" lon="3.59362">
        <ele>593.4</ele>
        <time>2018-06-08T11:54:20Z</time>
      </trkpt>
      <trkpt lat="45.03183" lon="3.59364">
        <ele>594</ele>
        <time>2018-06-08T11:54:30Z</time>
      </trkpt>
      <trkpt lat="45.03192" lon="3.59367">
        <ele>594.7</ele>
        <time>2018-06-08T11:54:40Z</time>
      </trkpt>
      <trkpt lat="45.032" lon="3.59371">
        <ele>595.3</ele>
        <time>2018-06-08T11:54:49Z</time>
      </trkpt>
      <trkpt lat="45.0321" lon="3.59374">
        <ele>596</ele>
        <time>2018-06-08T11:54:59Z</time>
      </trkpt>
      <trkpt lat="45.03219" lon="3.59376">
        <ele>596.6</ele>
        <time>2018-06-08T11:55:07Z</time>
      </trkpt>
      <trkpt lat="45.0323" lon="3.59377">
        <ele>597.1</ele>
        <time>2018-06-08T11:55:14Z</time>
      </trkpt>
      <trkpt lat="45.03239" lon="3.59378">
        <ele>597.5</ele>
        <time>2018-06-08T11:55:21Z</time>
      </trkpt>
      <trkpt lat="45.03248" lon="3.59378">
        <ele>598.4</ele>
        <time>2018-06-08T11:55:35Z</time>
      </trkpt>
      <trkpt lat="45.03257" lon="3.59385">
        <ele>599.5</ele>
        <time>2018-06-08T11:55:49Z</time>
      </trkpt>
      <trkpt lat="45.03265" lon="3.59392">
        <ele>600.6</ele>
        <time>2018-06-08T11:55:59Z</time>
      </trkpt>
      <trkpt lat="45.03272" lon="3.59401">
        <ele>601.6</ele>
        <time>2018-06-08T11:56:09Z</time>
      </trkpt>
      <trkpt lat="45.03281" lon="3.59405">
        <ele>602.6</ele>
        <time>2018-06-08T11:56:17Z</time>
      </trkpt>
      <trkpt lat="45.03291" lon="3.59408">
        <ele>603.7</ele>
        <time>2018-06-08T11:56:25Z</time>
      </trkpt>
      <trkpt lat="45.03297" lon="3.59417">
        <ele>605.2</ele>
        <time>2018-06-08T11:56:36Z</time>
      </trkpt>
      <trkpt lat="45.03291" lon="3.59426">
        <ele>609.7</ele>
        <time>2018-06-08T11:57:09Z</time>
      </trkpt>
      <trkpt lat="45.03282" lon="3.59431">
        <ele>611.3</ele>
        <time>2018-06-08T11:57:21Z</time>
      </trkpt>
      <trkpt lat="45.03273" lon="3.59434">
        <ele>613.3</ele>
        <time>2018-06-08T11:57:35Z</time>
      </trkpt>
      <trkpt lat="45.03263" lon="3.59433">
        <ele>615.1</ele>
        <time>2018-06-08T11:57:48Z</time>
      </trkpt>
      <trkpt lat="45.03254" lon="3.59432">
        <ele>616.7</ele>
        <time>2018-06-08T11:58:00Z</time>
      </trkpt>
      <trkpt lat="45.03245" lon="3.59431">
        <ele>617.9</ele>
        <time>2018-06-08T11:58:10Z</time>
      </trkpt>
      <trkpt lat="45.03236" lon="3.59432">
        <ele>619.4</ele>
        <time>2018-06-08T11:58:22Z</time>
      </trkpt>
      <trkpt lat="45.03226" lon="3.59431">
        <ele>621.1</ele>
        <time>2018-06-08T11:58:34Z</time>
      </trkpt>
      <trkpt lat="45.03217" lon="3.59429">
        <ele>622.6</ele>
        <time>2018-06-08T11:58:46Z</time>
      </trkpt>
      <trkpt lat="45.03208" lon="3.59426">
        <ele>623.8</ele>
        <time>2018-06-08T11:58:57Z</time>
      </trkpt>
      <trkpt lat="45.03199" lon="3.59427">
        <ele>625.1</ele>
        <time>2018-06-08T11:59:08Z</time>
      </trkpt>
      <trkpt lat="45.03189" lon="3.59428">
        <ele>626.6</ele>
        <time>2018-06-08T11:59:22Z</time>
      </trkpt>
      <trkpt lat="45.03182" lon="3.59436">
        <ele>628.2</ele>
        <time>2018-06-08T11:59:37Z</time>
      </trkpt>
      <trkpt lat="45.03185" lon="3.59448">
        <ele>629.1</ele>
        <time>2018-06-08T11:59:44Z</time>
      </trkpt>
      <trkpt lat="45.03193" lon="3.59456">
        <ele>630.8</ele>
        <time>2018-06-08T11:59:58Z</time>
      </trkpt>
      <trkpt lat="45.03202" lon="3.59462">
        <ele>631.8</ele>
        <time>2018-06-08T12:00:06Z</time>
      </trkpt>
      <trkpt lat="45.03211" lon="3.5947">
        <ele>635</ele>
        <time>2018-06-08T12:05:20Z</time>
      </trkpt>
      <trkpt lat="45.0322" lon="3.59469">
        <ele>634.9</ele>
        <time>2018-06-08T12:05:37Z</time>
      </trkpt>
      <trkpt lat="45.0323" lon="3.59469">
        <ele>634.6</ele>
        <time>2018-06-08T12:05:47Z</time>
      </trkpt>
      <trkpt lat="45.0324" lon="3.59472">
        <ele>634.4</ele>
        <time>2018-06-08T12:05:54Z</time>
      </trkpt>
      <trkpt lat="45.03249" lon="3.59472">
        <ele>633.9</ele>
        <time>2018-06-08T12:06:02Z</time>
      </trkpt>
      <trkpt lat="45.03258" lon="3.5947">
        <ele>633.2</ele>
        <time>2018-06-08T12:06:12Z</time>
      </trkpt>
      <trkpt lat="45.03267" lon="3.59465">
        <ele>632.2</ele>
        <time>2018-06-08T12:06:25Z</time>
      </trkpt>
      <trkpt lat="45.03277" lon="3.59463">
        <ele>631.6</ele>
        <time>2018-06-08T12:06:32Z</time>
      </trkpt>
      <trkpt lat="45.03286" lon="3.59461">
        <ele>630.9</ele>
        <time>2018-06-08T12:06:41Z</time>
      </trkpt>
      <trkpt lat="45.03294" lon="3.59456">
        <ele>630.1</ele>
        <time>2018-06-08T12:06:50Z</time>
      </trkpt>
      <trkpt lat="45.03304" lon="3.59454">
        <ele>629.5</ele>
        <time>2018-06-08T12:06:57Z</time>
      </trkpt>
      <trkpt lat="45.03313" lon="3.59446">
        <ele>628.5</ele>
        <time>2018-06-08T12:07:07Z</time>
      </trkpt>
      <trkpt lat="45.03321" lon="3.59439">
        <ele>627.6</ele>
        <time>2018-06-08T12:07:17Z</time>
      </trkpt>
      <trkpt lat="45.03326" lon="3.59428">
        <ele>626.7</ele>
        <time>2018-06-08T12:07:27Z</time>
      </trkpt>
      <trkpt lat="45.03335" lon="3.59417">
        <ele>626</ele>
        <time>2018-06-08T12:07:35Z</time>
      </trkpt>
      <trkpt lat="45.03342" lon="3.59409">
        <ele>625.3</ele>
        <time>2018-06-08T12:07:42Z</time>
      </trkpt>
      <trkpt lat="45.03351" lon="3.59405">
        <ele>624.6</ele>
        <time>2018-06-08T12:07:49Z</time>
      </trkpt>
      <trkpt lat="45.03358" lon="3.59395">
        <ele>623.7</ele>
        <time>2018-06-08T12:07:59Z</time>
      </trkpt>
      <trkpt lat="45.03367" lon="3.59389">
        <ele>622.8</ele>
        <time>2018-06-08T12:08:08Z</time>
      </trkpt>
      <trkpt lat="45.03374" lon="3.5938">
        <ele>621.9</ele>
        <time>2018-06-08T12:08:18Z</time>
      </trkpt>
      <trkpt lat="45.03383" lon="3.59373">
        <ele>621.1</ele>
        <time>2018-06-08T12:08:27Z</time>
      </trkpt>
      <trkpt lat="45.03392" lon="3.59367">
        <ele>620.2</ele>
        <time>2018-06-08T12:08:36Z</time>
      </trkpt>
      <trkpt lat="45.034" lon="3.5936">
        <ele>619.6</ele>
        <time>2018-06-08T12:08:44Z</time>
      </trkpt>
      <trkpt lat="45.03407" lon="3.59352">
        <ele>619</ele>
        <time>2018-06-08T12:08:53Z</time>
      </trkpt>
      <trkpt lat="45.03415" lon="3.59346">
        <ele>618.3</ele>
        <time>2018-06-08T12:09:01Z</time>
      </trkpt>
      <trkpt lat="45.03422" lon="3.59337">
        <ele>617.7</ele>
        <time>2018-06-08T12:09:10Z</time>
      </trkpt>
      <trkpt lat="45.0343" lon="3.5933">
        <ele>616.9</ele>
        <time>2018-06-08T12:09:18Z</time>
      </trkpt>
      <trkpt lat="45.03436" lon="3.5932">
        <ele>616</ele>
        <time>2018-06-08T12:09:27Z</time>
      </trkpt>
      <trkpt lat="45.03442" lon="3.59309">
        <ele>615</ele>
        <time>2018-06-08T12:09:37Z</time>
      </trkpt>
      <trkpt lat="45.03447" lon="3.59299">
        <ele>614.1</ele>
        <time>2018-06-08T12:09:46Z</time>
      </trkpt>
      <trkpt lat="45.03454" lon="3.59288">
        <ele>613.3</ele>
        <time>2018-06-08T12:09:54Z</time>
      </trkpt>
      <trkpt lat="45.0346" lon="3.59277">
        <ele>612.4</ele>
        <time>2018-06-08T12:10:03Z</time>
      </trkpt>
      <trkpt lat="45.03465" lon="3.59266">
        <ele>611.5</ele>
        <time>2018-06-08T12:10:11Z</time>
      </trkpt>
      <trkpt lat="45.03472" lon="3.59257">
        <ele>610.8</ele>
        <time>2018-06-08T12:10:18Z</time>
      </trkpt>
      <trkpt lat="45.03478" lon="3.59247">
        <ele>610.1</ele>
        <time>2018-06-08T12:10:26Z</time>
      </trkpt>
      <trkpt lat="45.03483" lon="3.59236">
        <ele>609.5</ele>
        <time>2018-06-08T12:10:34Z</time>
      </trkpt>
      <trkpt lat="45.03489" lon="3.59225">
        <ele>608.7</ele>
        <time>2018-06-08T12:10:43Z</time>
      </trkpt>
      <trkpt lat="45.03493" lon="3.59213">
        <ele>608.2</ele>
        <time>2018-06-08T12:10:50Z</time>
      </trkpt>
      <trkpt lat="45.03499" lon="3.59202">
        <ele>607.4</ele>
        <time>2018-06-08T12:10:59Z</time>
      </trkpt>
      <trkpt lat="45.03504" lon="3.59192">
        <ele>606.7</ele>
        <time>2018-06-08T12:11:08Z</time>
      </trkpt>
      <trkpt lat="45.0351" lon="3.59181">
        <ele>606.1</ele>
        <time>2018-06-08T12:11:17Z</time>
      </trkpt>
      <trkpt lat="45.03516" lon="3.5917">
        <ele>605.2</ele>
        <time>2018-06-08T12:11:26Z</time>
      </trkpt>
      <trkpt lat="45.0352" lon="3.59158">
        <ele>604.3</ele>
        <time>2018-06-08T12:11:35Z</time>
      </trkpt>
      <trkpt lat="45.03523" lon="3.59145">
        <ele>603.3</ele>
        <time>2018-06-08T12:11:45Z</time>
      </trkpt>
      <trkpt lat="45.03529" lon="3.59135">
        <ele>602.4</ele>
        <time>2018-06-08T12:11:54Z</time>
      </trkpt>
      <trkpt lat="45.03527" lon="3.59121">
        <ele>601.7</ele>
        <time>2018-06-08T12:12:02Z</time>
      </trkpt>
      <trkpt lat="45.03528" lon="3.59107">
        <ele>601</ele>
        <time>2018-06-08T12:12:10Z</time>
      </trkpt>
      <trkpt lat="45.03531" lon="3.59093">
        <ele>600.2</ele>
        <time>2018-06-08T12:12:19Z</time>
      </trkpt>
      <trkpt lat="45.03537" lon="3.59082">
        <ele>599.4</ele>
        <time>2018-06-08T12:12:27Z</time>
      </trkpt>
      <trkpt lat="45.03543" lon="3.59073">
        <ele>598.8</ele>
        <time>2018-06-08T12:12:34Z</time>
      </trkpt>
      <trkpt lat="45.0355" lon="3.59065">
        <ele>598.2</ele>
        <time>2018-06-08T12:12:42Z</time>
      </trkpt>
      <trkpt lat="45.03556" lon="3.59054">
        <ele>597.5</ele>
        <time>2018-06-08T12:12:50Z</time>
      </trkpt>
      <trkpt lat="45.03563" lon="3.59044">
        <ele>596.6</ele>
        <time>2018-06-08T12:12:58Z</time>
      </trkpt>
      <trkpt lat="45.0357" lon="3.59034">
        <ele>595.9</ele>
        <time>2018-06-08T12:13:05Z</time>
      </trkpt>
      <trkpt lat="45.03579" lon="3.59034">
        <ele>595.1</ele>
        <time>2018-06-08T12:13:12Z</time>
      </trkpt>
      <trkpt lat="45.03588" lon="3.59039">
        <ele>594.4</ele>
        <time>2018-06-08T12:13:22Z</time>
      </trkpt>
      <trkpt lat="45.03599" lon="3.59042">
        <ele>594.3</ele>
        <time>2018-06-08T12:13:29Z</time>
      </trkpt>
      <trkpt lat="45.03607" lon="3.5905">
        <ele>594.6</ele>
        <time>2018-06-08T12:13:40Z</time>
      </trkpt>
      <trkpt lat="45.03613" lon="3.5906">
        <ele>594.7</ele>
        <time>2018-06-08T12:13:48Z</time>
      </trkpt>
      <trkpt lat="45.03619" lon="3.59072">
        <ele>594.8</ele>
        <time>2018-06-08T12:13:57Z</time>
      </trkpt>
      <trkpt lat="45.03626" lon="3.5908">
        <ele>594.8</ele>
        <time>2018-06-08T12:14:05Z</time>
      </trkpt>
      <trkpt lat="45.03635" lon="3.59085">
        <ele>594.7</ele>
        <time>2018-06-08T12:14:13Z</time>
      </trkpt>
      <trkpt lat="45.03645" lon="3.59089">
        <ele>594.5</ele>
        <time>2018-06-08T12:14:21Z</time>
      </trkpt>
      <trkpt lat="45.03652" lon="3.59097">
        <ele>593.8</ele>
        <time>2018-06-08T12:14:36Z</time>
      </trkpt>
      <trkpt lat="45.03658" lon="3.59087">
        <ele>592.8</ele>
        <time>2018-06-08T12:14:48Z</time>
      </trkpt>
      <trkpt lat="45.03663" lon="3.59076">
        <ele>592.3</ele>
        <time>2018-06-08T12:14:56Z</time>
      </trkpt>
      <trkpt lat="45.0367" lon="3.59065">
        <ele>592.1</ele>
        <time>2018-06-08T12:15:05Z</time>
      </trkpt>
      <trkpt lat="45.03678" lon="3.59057">
        <ele>591.7</ele>
        <time>2018-06-08T12:15:15Z</time>
      </trkpt>
      <trkpt lat="45.03683" lon="3.59046">
        <ele>591.1</ele>
        <time>2018-06-08T12:15:26Z</time>
      </trkpt>
      <trkpt lat="45.0369" lon="3.59038">
        <ele>590.4</ele>
        <time>2018-06-08T12:15:37Z</time>
      </trkpt>
      <trkpt lat="45.03701" lon="3.59038">
        <ele>589</ele>
        <time>2018-06-08T12:16:36Z</time>
      </trkpt>
      <trkpt lat="45.03709" lon="3.59033">
        <ele>588.7</ele>
        <time>2018-06-08T12:16:46Z</time>
      </trkpt>
      <trkpt lat="45.03718" lon="3.59031">
        <ele>588.3</ele>
        <time>2018-06-08T12:16:54Z</time>
      </trkpt>
      <trkpt lat="45.03728" lon="3.59028">
        <ele>587.8</ele>
        <time>2018-06-08T12:17:05Z</time>
      </trkpt>
      <trkpt lat="45.03737" lon="3.59028">
        <ele>587.1</ele>
        <time>2018-06-08T12:17:14Z</time>
      </trkpt>
      <trkpt lat="45.03746" lon="3.5903">
        <ele>586</ele>
        <time>2018-06-08T12:17:23Z</time>
      </trkpt>
      <trkpt lat="45.03754" lon="3.59024">
        <ele>584.5</ele>
        <time>2018-06-08T12:17:34Z</time>
      </trkpt>
      <trkpt lat="45.03764" lon="3.59026">
        <ele>583.1</ele>
        <time>2018-06-08T12:17:43Z</time>
      </trkpt>
      <trkpt lat="45.03774" lon="3.59026">
        <ele>581.9</ele>
        <time>2018-06-08T12:17:50Z</time>
      </trkpt>
      <trkpt lat="45.03783" lon="3.59028">
        <ele>580.1</ele>
        <time>2018-06-08T12:18:01Z</time>
      </trkpt>
      <trkpt lat="45.03792" lon="3.59034">
        <ele>578.3</ele>
        <time>2018-06-08T12:18:13Z</time>
      </trkpt>
      <trkpt lat="45.03802" lon="3.59039">
        <ele>577.2</ele>
        <time>2018-06-08T12:18:21Z</time>
      </trkpt>
      <trkpt lat="45.03812" lon="3.59041">
        <ele>575.7</ele>
        <time>2018-06-08T12:18:31Z</time>
      </trkpt>
      <trkpt lat="45.03821" lon="3.59046">
        <ele>574.6</ele>
        <time>2018-06-08T12:18:39Z</time>
      </trkpt>
      <trkpt lat="45.0383" lon="3.59052">
        <ele>573</ele>
        <time>2018-06-08T12:18:50Z</time>
      </trkpt>
      <trkpt lat="45.03838" lon="3.59061">
        <ele>571.4</ele>
        <time>2018-06-08T12:19:01Z</time>
      </trkpt>
      <trkpt lat="45.03847" lon="3.59065">
        <ele>570.3</ele>
        <time>2018-06-08T12:19:09Z</time>
      </trkpt>
      <trkpt lat="45.03857" lon="3.59068">
        <ele>569</ele>
        <time>2018-06-08T12:19:17Z</time>
      </trkpt>
      <trkpt lat="45.03866" lon="3.5907">
        <ele>567.2</ele>
        <time>2018-06-08T12:19:27Z</time>
      </trkpt>
      <trkpt lat="45.03875" lon="3.59072">
        <ele>565.6</ele>
        <time>2018-06-08T12:19:36Z</time>
      </trkpt>
      <trkpt lat="45.03885" lon="3.59074">
        <ele>563.6</ele>
        <time>2018-06-08T12:19:46Z</time>
      </trkpt>
      <trkpt lat="45.03893" lon="3.59078">
        <ele>561.1</ele>
        <time>2018-06-08T12:19:58Z</time>
      </trkpt>
      <trkpt lat="45.03903" lon="3.59077">
        <ele>559.1</ele>
        <time>2018-06-08T12:20:07Z</time>
      </trkpt>
      <trkpt lat="45.03913" lon="3.59078">
        <ele>556.5</ele>
        <time>2018-06-08T12:20:19Z</time>
      </trkpt>
      <trkpt lat="45.03922" lon="3.59079">
        <ele>554.4</ele>
        <time>2018-06-08T12:20:28Z</time>
      </trkpt>
      <trkpt lat="45.03924" lon="3.59066">
        <ele>551.4</ele>
        <time>2018-06-08T12:20:42Z</time>
      </trkpt>
      <trkpt lat="45.03919" lon="3.59055">
        <ele>548.9</ele>
        <time>2018-06-08T12:20:54Z</time>
      </trkpt>
      <trkpt lat="45.03914" lon="3.59044">
        <ele>546.9</ele>
        <time>2018-06-08T12:21:03Z</time>
      </trkpt>
      <trkpt lat="45.03921" lon="3.59034">
        <ele>544.8</ele>
        <time>2018-06-08T12:21:14Z</time>
      </trkpt>
      <trkpt lat="45.03931" lon="3.59034">
        <ele>543.6</ele>
        <time>2018-06-08T12:21:22Z</time>
      </trkpt>
      <trkpt lat="45.0394" lon="3.59038">
        <ele>542.4</ele>
        <time>2018-06-08T12:21:31Z</time>
      </trkpt>
      <trkpt lat="45.03949" lon="3.59043">
        <ele>542</ele>
        <time>2018-06-08T12:21:35Z</time>
      </trkpt>
      <trkpt lat="45.03958" lon="3.5905">
        <ele>540.9</ele>
        <time>2018-06-08T12:21:47Z</time>
      </trkpt>
      <trkpt lat="45.03967" lon="3.59054">
        <ele>540</ele>
        <time>2018-06-08T12:22:02Z</time>
      </trkpt>
      <trkpt lat="45.03977" lon="3.59058">
        <ele>539.3</ele>
        <time>2018-06-08T12:22:40Z</time>
      </trkpt>
      <trkpt lat="45.03986" lon="3.59058">
        <ele>539.2</ele>
        <time>2018-06-08T12:22:50Z</time>
      </trkpt>
      <trkpt lat="45.03996" lon="3.59062">
        <ele>538.8</ele>
        <time>2018-06-08T12:23:01Z</time>
      </trkpt>
      <trkpt lat="45.04005" lon="3.59063">
        <ele>538.4</ele>
        <time>2018-06-08T12:23:14Z</time>
      </trkpt>
      <trkpt lat="45.04014" lon="3.59064">
        <ele>538.1</ele>
        <time>2018-06-08T12:24:17Z</time>
      </trkpt>
      <trkpt lat="45.04024" lon="3.59072">
        <ele>538.1</ele>
        <time>2018-06-08T12:24:28Z</time>
      </trkpt>
      <trkpt lat="45.04029" lon="3.59061">
        <ele>538.1</ele>
        <time>2018-06-08T12:24:39Z</time>
      </trkpt>
      <trkpt lat="45.04029" lon="3.59048">
        <ele>537.9</ele>
        <time>2018-06-08T12:24:47Z</time>
      </trkpt>
      <trkpt lat="45.04035" lon="3.59038">
        <ele>537.8</ele>
        <time>2018-06-08T12:24:55Z</time>
      </trkpt>
      <trkpt lat="45.0404" lon="3.59027">
        <ele>537.8</ele>
        <time>2018-06-08T12:25:04Z</time>
      </trkpt>
      <trkpt lat="45.0405" lon="3.5903">
        <ele>537.7</ele>
        <time>2018-06-08T12:25:13Z</time>
      </trkpt>
      <trkpt lat="45.04057" lon="3.59038">
        <ele>537.6</ele>
        <time>2018-06-08T12:25:21Z</time>
      </trkpt>
      <trkpt lat="45.04066" lon="3.59046">
        <ele>537.5</ele>
        <time>2018-06-08T12:25:29Z</time>
      </trkpt>
      <trkpt lat="45.04072" lon="3.59057">
        <ele>537.4</ele>
        <time>2018-06-08T12:25:37Z</time>
      </trkpt>
      <trkpt lat="45.0408" lon="3.59066">
        <ele>537.3</ele>
        <time>2018-06-08T12:25:47Z</time>
      </trkpt>
      <trkpt lat="45.04088" lon="3.59074">
        <ele>537.2</ele>
        <time>2018-06-08T12:25:56Z</time>
      </trkpt>
      <trkpt lat="45.04095" lon="3.59082">
        <ele>537.2</ele>
        <time>2018-06-08T12:26:04Z</time>
      </trkpt>
      <trkpt lat="45.04102" lon="3.59092">
        <ele>537.1</ele>
        <time>2018-06-08T12:26:12Z</time>
      </trkpt>
      <trkpt lat="45.04109" lon="3.59102">
        <ele>537.1</ele>
        <time>2018-06-08T12:26:21Z</time>
      </trkpt>
      <trkpt lat="45.04116" lon="3.5911">
        <ele>537.1</ele>
        <time>2018-06-08T12:26:31Z</time>
      </trkpt>
      <trkpt lat="45.04124" lon="3.59119">
        <ele>536.9</ele>
        <time>2018-06-08T12:26:39Z</time>
      </trkpt>
      <trkpt lat="45.04132" lon="3.59128">
        <ele>536.8</ele>
        <time>2018-06-08T12:26:46Z</time>
      </trkpt>
      <trkpt lat="45.04139" lon="3.59138">
        <ele>536.6</ele>
        <time>2018-06-08T12:26:53Z</time>
      </trkpt>
      <trkpt lat="45.04146" lon="3.59146">
        <ele>536.3</ele>
        <time>2018-06-08T12:27:01Z</time>
      </trkpt>
      <trkpt lat="45.04155" lon="3.5915">
        <ele>536.1</ele>
        <time>2018-06-08T12:27:19Z</time>
      </trkpt>
      <trkpt lat="45.04163" lon="3.59156">
        <ele>536</ele>
        <time>2018-06-08T12:27:27Z</time>
      </trkpt>
      <trkpt lat="45.0417" lon="3.59166">
        <ele>536.2</ele>
        <time>2018-06-08T12:27:37Z</time>
      </trkpt>
      <trkpt lat="45.04175" lon="3.59176">
        <ele>536.4</ele>
        <time>2018-06-08T12:27:45Z</time>
      </trkpt>
      <trkpt lat="45.04177" lon="3.5919">
        <ele>536.9</ele>
        <time>2018-06-08T12:27:55Z</time>
      </trkpt>
      <trkpt lat="45.04182" lon="3.59202">
        <ele>537.5</ele>
        <time>2018-06-08T12:28:05Z</time>
      </trkpt>
      <trkpt lat="45.04185" lon="3.59215">
        <ele>537.9</ele>
        <time>2018-06-08T12:28:12Z</time>
      </trkpt>
      <trkpt lat="45.04188" lon="3.59227">
        <ele>538.3</ele>
        <time>2018-06-08T12:28:20Z</time>
      </trkpt>
      <trkpt lat="45.04195" lon="3.59236">
        <ele>538.7</ele>
        <time>2018-06-08T12:28:27Z</time>
      </trkpt>
      <trkpt lat="45.04203" lon="3.59245">
        <ele>539.1</ele>
        <time>2018-06-08T12:28:34Z</time>
      </trkpt>
      <trkpt lat="45.04212" lon="3.59249">
        <ele>539.5</ele>
        <time>2018-06-08T12:28:43Z</time>
      </trkpt>
      <trkpt lat="45.04221" lon="3.59252">
        <ele>539.8</ele>
        <time>2018-06-08T12:28:51Z</time>
      </trkpt>
      <trkpt lat="45.0423" lon="3.59254">
        <ele>540</ele>
        <time>2018-06-08T12:29:00Z</time>
      </trkpt>
      <trkpt lat="45.0424" lon="3.59256">
        <ele>540.1</ele>
        <time>2018-06-08T12:29:09Z</time>
      </trkpt>
      <trkpt lat="45.04248" lon="3.59262">
        <ele>540.1</ele>
        <time>2018-06-08T12:29:15Z</time>
      </trkpt>
      <trkpt lat="45.04258" lon="3.59263">
        <ele>540.2</ele>
        <time>2018-06-08T12:29:24Z</time>
      </trkpt>
      <trkpt lat="45.04266" lon="3.59271">
        <ele>540.2</ele>
        <time>2018-06-08T12:29:32Z</time>
      </trkpt>
      <trkpt lat="45.04275" lon="3.59274">
        <ele>540.2</ele>
        <time>2018-06-08T12:29:39Z</time>
      </trkpt>
      <trkpt lat="45.04283" lon="3.59279">
        <ele>540.2</ele>
        <time>2018-06-08T12:29:49Z</time>
      </trkpt>
      <trkpt lat="45.04292" lon="3.59283">
        <ele>540.2</ele>
        <time>2018-06-08T12:29:55Z</time>
      </trkpt>
      <trkpt lat="45.04301" lon="3.59284">
        <ele>540.1</ele>
        <time>2018-06-08T12:30:02Z</time>
      </trkpt>
      <trkpt lat="45.0431" lon="3.59289">
        <ele>540.1</ele>
        <time>2018-06-08T12:30:10Z</time>
      </trkpt>
      <trkpt lat="45.04319" lon="3.5929">
        <ele>540.1</ele>
        <time>2018-06-08T12:30:17Z</time>
      </trkpt>
      <trkpt lat="45.04329" lon="3.59294">
        <ele>540.1</ele>
        <time>2018-06-08T12:30:24Z</time>
      </trkpt>
      <trkpt lat="45.04338" lon="3.59295">
        <ele>540.3</ele>
        <time>2018-06-08T12:30:35Z</time>
      </trkpt>
      <trkpt lat="45.04348" lon="3.59295">
        <ele>540.5</ele>
        <time>2018-06-08T12:30:41Z</time>
      </trkpt>
      <trkpt lat="45.04358" lon="3.59297">
        <ele>540.8</ele>
        <time>2018-06-08T12:30:50Z</time>
      </trkpt>
      <trkpt lat="45.04367" lon="3.59295">
        <ele>541.1</ele>
        <time>2018-06-08T12:30:59Z</time>
      </trkpt>
      <trkpt lat="45.04375" lon="3.5929">
        <ele>541.2</ele>
        <time>2018-06-08T12:31:07Z</time>
      </trkpt>
      <trkpt lat="45.04382" lon="3.59281">
        <ele>541</ele>
        <time>2018-06-08T12:31:16Z</time>
      </trkpt>
      <trkpt lat="45.04391" lon="3.59277">
        <ele>540.6</ele>
        <time>2018-06-08T12:31:23Z</time>
      </trkpt>
      <trkpt lat="45.044" lon="3.59272">
        <ele>540.2</ele>
        <time>2018-06-08T12:31:31Z</time>
      </trkpt>
      <trkpt lat="45.04409" lon="3.59266">
        <ele>539.7</ele>
        <time>2018-06-08T12:31:38Z</time>
      </trkpt>
      <trkpt lat="45.04417" lon="3.59259">
        <ele>539</ele>
        <time>2018-06-08T12:31:46Z</time>
      </trkpt>
      <trkpt lat="45.04423" lon="3.59248">
        <ele>538.1</ele>
        <time>2018-06-08T12:31:56Z</time>
      </trkpt>
      <trkpt lat="45.04431" lon="3.59239">
        <ele>537.4</ele>
        <time>2018-06-08T12:32:06Z</time>
      </trkpt>
      <trkpt lat="45.0444" lon="3.59234">
        <ele>537</ele>
        <time>2018-06-08T12:32:12Z</time>
      </trkpt>
      <trkpt lat="45.0445" lon="3.59231">
        <ele>536.8</ele>
        <time>2018-06-08T12:32:19Z</time>
      </trkpt>
      <trkpt lat="45.04459" lon="3.59226">
        <ele>536.5</ele>
        <time>2018-06-08T12:32:28Z</time>
      </trkpt>
      <trkpt lat="45.04468" lon="3.59219">
        <ele>536.4</ele>
        <time>2018-06-08T12:32:37Z</time>
      </trkpt>
      <trkpt lat="45.04477" lon="3.59212">
        <ele>536.3</ele>
        <time>2018-06-08T12:32:45Z</time>
      </trkpt>
      <trkpt lat="45.04483" lon="3.59203">
        <ele>536.3</ele>
        <time>2018-06-08T12:32:54Z</time>
      </trkpt>
      <trkpt lat="45.04492" lon="3.59197">
        <ele>536.2</ele>
        <time>2018-06-08T12:33:03Z</time>
      </trkpt>
      <trkpt lat="45.04498" lon="3.59187">
        <ele>536.2</ele>
        <time>2018-06-08T12:33:14Z</time>
      </trkpt>
      <trkpt lat="45.04507" lon="3.59181">
        <ele>536.2</ele>
        <time>2018-06-08T12:33:22Z</time>
      </trkpt>
      <trkpt lat="45.04513" lon="3.59172">
        <ele>536.2</ele>
        <time>2018-06-08T12:33:30Z</time>
      </trkpt>
      <trkpt lat="45.04521" lon="3.59164">
        <ele>536.2</ele>
        <time>2018-06-08T12:33:38Z</time>
      </trkpt>
      <trkpt lat="45.0453" lon="3.59157">
        <ele>536.2</ele>
        <time>2018-06-08T12:33:48Z</time>
      </trkpt>
      <trkpt lat="45.04538" lon="3.59151">
        <ele>536.2</ele>
        <time>2018-06-08T12:33:57Z</time>
      </trkpt>
      <trkpt lat="45.04547" lon="3.59146">
        <ele>536.2</ele>
        <time>2018-06-08T12:34:04Z</time>
      </trkpt>
      <trkpt lat="45.04555" lon="3.5914">
        <ele>536.1</ele>
        <time>2018-06-08T12:34:13Z</time>
      </trkpt>
      <trkpt lat="45.04564" lon="3.59133">
        <ele>536.1</ele>
        <time>2018-06-08T12:34:22Z</time>
      </trkpt>
      <trkpt lat="45.04572" lon="3.59127">
        <ele>536.1</ele>
        <time>2018-06-08T12:34:33Z</time>
      </trkpt>
      <trkpt lat="45.0458" lon="3.59122">
        <ele>536.1</ele>
        <time>2018-06-08T12:34:41Z</time>
      </trkpt>
      <trkpt lat="45.04588" lon="3.59108">
        <ele>536.1</ele>
        <time>2018-06-08T12:36:10Z</time>
      </trkpt>
      <trkpt lat="45.04597" lon="3.59106">
        <ele>536.3</ele>
        <time>2018-06-08T12:44:33Z</time>
      </trkpt>
      <trkpt lat="45.04605" lon="3.59099">
        <ele>536.7</ele>
        <time>2018-06-08T12:44:46Z</time>
      </trkpt>
      <trkpt lat="45.04615" lon="3.59098">
        <ele>537.3</ele>
        <time>2018-06-08T12:44:56Z</time>
      </trkpt>
      <trkpt lat="45.04624" lon="3.59093">
        <ele>537.9</ele>
        <time>2018-06-08T12:45:05Z</time>
      </trkpt>
      <trkpt lat="45.0463" lon="3.59083">
        <ele>538.7</ele>
        <time>2018-06-08T12:45:17Z</time>
      </trkpt>
      <trkpt lat="45.04637" lon="3.59075">
        <ele>539.6</ele>
        <time>2018-06-08T12:45:27Z</time>
      </trkpt>
      <trkpt lat="45.04643" lon="3.59065">
        <ele>540.2</ele>
        <time>2018-06-08T12:45:34Z</time>
      </trkpt>
      <trkpt lat="45.04649" lon="3.59055">
        <ele>540.8</ele>
        <time>2018-06-08T12:45:43Z</time>
      </trkpt>
      <trkpt lat="45.04653" lon="3.59043">
        <ele>541.5</ele>
        <time>2018-06-08T12:45:53Z</time>
      </trkpt>
      <trkpt lat="45.04657" lon="3.59032">
        <ele>542</ele>
        <time>2018-06-08T12:46:02Z</time>
      </trkpt>
      <trkpt lat="45.04662" lon="3.59019">
        <ele>542.3</ele>
        <time>2018-06-08T12:46:10Z</time>
      </trkpt>
      <trkpt lat="45.04664" lon="3.59006">
        <ele>542.5</ele>
        <time>2018-06-08T12:46:17Z</time>
      </trkpt>
      <trkpt lat="45.0467" lon="3.58994">
        <ele>542.6</ele>
        <time>2018-06-08T12:46:25Z</time>
      </trkpt>
      <trkpt lat="45.04675" lon="3.58981">
        <ele>542.7</ele>
        <time>2018-06-08T12:46:33Z</time>
      </trkpt>
      <trkpt lat="45.04681" lon="3.58971">
        <ele>542.8</ele>
        <time>2018-06-08T12:46:39Z</time>
      </trkpt>
      <trkpt lat="45.04686" lon="3.58959">
        <ele>542.8</ele>
        <time>2018-06-08T12:46:47Z</time>
      </trkpt>
      <trkpt lat="45.0469" lon="3.58947">
        <ele>542.8</ele>
        <time>2018-06-08T12:46:55Z</time>
      </trkpt>
      <trkpt lat="45.04694" lon="3.58935">
        <ele>542.9</ele>
        <time>2018-06-08T12:47:03Z</time>
      </trkpt>
      <trkpt lat="45.04696" lon="3.58922">
        <ele>543.1</ele>
        <time>2018-06-08T12:47:11Z</time>
      </trkpt>
      <trkpt lat="45.04695" lon="3.58908">
        <ele>543.3</ele>
        <time>2018-06-08T12:47:19Z</time>
      </trkpt>
      <trkpt lat="45.04696" lon="3.58894">
        <ele>543.4</ele>
        <time>2018-06-08T12:47:27Z</time>
      </trkpt>
      <trkpt lat="45.04701" lon="3.58882">
        <ele>543.5</ele>
        <time>2018-06-08T12:47:35Z</time>
      </trkpt>
      <trkpt lat="45.04705" lon="3.58869">
        <ele>543.4</ele>
        <time>2018-06-08T12:47:42Z</time>
      </trkpt>
      <trkpt lat="45.04708" lon="3.58857">
        <ele>543.3</ele>
        <time>2018-06-08T12:47:49Z</time>
      </trkpt>
      <trkpt lat="45.04711" lon="3.58844">
        <ele>543.2</ele>
        <time>2018-06-08T12:47:57Z</time>
      </trkpt>
      <trkpt lat="45.04714" lon="3.58832">
        <ele>543.1</ele>
        <time>2018-06-08T12:48:04Z</time>
      </trkpt>
      <trkpt lat="45.04723" lon="3.58822">
        <ele>542.9</ele>
        <time>2018-06-08T12:48:12Z</time>
      </trkpt>
      <trkpt lat="45.04726" lon="3.5881">
        <ele>542.7</ele>
        <time>2018-06-08T12:48:20Z</time>
      </trkpt>
      <trkpt lat="45.04727" lon="3.58796">
        <ele>542.6</ele>
        <time>2018-06-08T12:48:27Z</time>
      </trkpt>
      <trkpt lat="45.0473" lon="3.58782">
        <ele>542.5</ele>
        <time>2018-06-08T12:48:35Z</time>
      </trkpt>
      <trkpt lat="45.04735" lon="3.58771">
        <ele>542.4</ele>
        <time>2018-06-08T12:48:43Z</time>
      </trkpt>
      <trkpt lat="45.04738" lon="3.58758">
        <ele>542.3</ele>
        <time>2018-06-08T12:48:50Z</time>
      </trkpt>
      <trkpt lat="45.04741" lon="3.58744">
        <ele>542.2</ele>
        <time>2018-06-08T12:48:58Z</time>
      </trkpt>
      <trkpt lat="45.04744" lon="3.58732">
        <ele>542.1</ele>
        <time>2018-06-08T12:49:06Z</time>
      </trkpt>
      <trkpt lat="45.04746" lon="3.58719">
        <ele>542</ele>
        <time>2018-06-08T12:49:14Z</time>
      </trkpt>
      <trkpt lat="45.0475" lon="3.58706">
        <ele>542</ele>
        <time>2018-06-08T12:49:22Z</time>
      </trkpt>
      <trkpt lat="45.04753" lon="3.58694">
        <ele>541.9</ele>
        <time>2018-06-08T12:49:29Z</time>
      </trkpt>
      <trkpt lat="45.04756" lon="3.58682">
        <ele>541.8</ele>
        <time>2018-06-08T12:49:37Z</time>
      </trkpt>
      <trkpt lat="45.0476" lon="3.58669">
        <ele>541.6</ele>
        <time>2018-06-08T12:49:45Z</time>
      </trkpt>
      <trkpt lat="45.04765" lon="3.58657">
        <ele>541.5</ele>
        <time>2018-06-08T12:49:53Z</time>
      </trkpt>
      <trkpt lat="45.0477" lon="3.58645">
        <ele>541.4</ele>
        <time>2018-06-08T12:50:01Z</time>
      </trkpt>
      <trkpt lat="45.04771" lon="3.58631">
        <ele>541.3</ele>
        <time>2018-06-08T12:50:09Z</time>
      </trkpt>
      <trkpt lat="45.04777" lon="3.5862">
        <ele>541.3</ele>
        <time>2018-06-08T12:50:16Z</time>
      </trkpt>
      <trkpt lat="45.0478" lon="3.58608">
        <ele>541.2</ele>
        <time>2018-06-08T12:50:24Z</time>
      </trkpt>
      <trkpt lat="45.04782" lon="3.58595">
        <ele>541.2</ele>
        <time>2018-06-08T12:50:32Z</time>
      </trkpt>
      <trkpt lat="45.04785" lon="3.58582">
        <ele>541.2</ele>
        <time>2018-06-08T12:50:40Z</time>
      </trkpt>
      <trkpt lat="45.04785" lon="3.58569">
        <ele>541.1</ele>
        <time>2018-06-08T12:50:47Z</time>
      </trkpt>
      <trkpt lat="45.04789" lon="3.58556">
        <ele>541</ele>
        <time>2018-06-08T12:50:55Z</time>
      </trkpt>
      <trkpt lat="45.04794" lon="3.58543">
        <ele>540.9</ele>
        <time>2018-06-08T12:51:04Z</time>
      </trkpt>
      <trkpt lat="45.04797" lon="3.5853">
        <ele>540.9</ele>
        <time>2018-06-08T12:51:23Z</time>
      </trkpt>
      <trkpt lat="45.04795" lon="3.58516">
        <ele>540.9</ele>
        <time>2018-06-08T12:51:31Z</time>
      </trkpt>
      <trkpt lat="45.04797" lon="3.58503">
        <ele>540.7</ele>
        <time>2018-06-08T12:51:38Z</time>
      </trkpt>
      <trkpt lat="45.048" lon="3.5849">
        <ele>540.4</ele>
        <time>2018-06-08T12:51:46Z</time>
      </trkpt>
      <trkpt lat="45.04804" lon="3.58477">
        <ele>539.7</ele>
        <time>2018-06-08T12:51:54Z</time>
      </trkpt>
      <trkpt lat="45.04808" lon="3.58465">
        <ele>539</ele>
        <time>2018-06-08T12:52:02Z</time>
      </trkpt>
      <trkpt lat="45.04814" lon="3.58454">
        <ele>538.5</ele>
        <time>2018-06-08T12:52:11Z</time>
      </trkpt>
      <trkpt lat="45.0482" lon="3.58443">
        <ele>538.1</ele>
        <time>2018-06-08T12:52:21Z</time>
      </trkpt>
      <trkpt lat="45.04824" lon="3.58431">
        <ele>537.8</ele>
        <time>2018-06-08T12:52:29Z</time>
      </trkpt>
      <trkpt lat="45.04826" lon="3.58418">
        <ele>537.5</ele>
        <time>2018-06-08T12:52:38Z</time>
      </trkpt>
      <trkpt lat="45.04829" lon="3.58405">
        <ele>537.4</ele>
        <time>2018-06-08T12:52:46Z</time>
      </trkpt>
      <trkpt lat="45.04835" lon="3.58395">
        <ele>537.6</ele>
        <time>2018-06-08T12:52:54Z</time>
      </trkpt>
      <trkpt lat="45.04842" lon="3.58384">
        <ele>537.9</ele>
        <time>2018-06-08T12:53:03Z</time>
      </trkpt>
      <trkpt lat="45.04849" lon="3.58374">
        <ele>538.4</ele>
        <time>2018-06-08T12:53:11Z</time>
      </trkpt>
      <trkpt lat="45.04848" lon="3.58361">
        <ele>539.1</ele>
        <time>2018-06-08T12:53:21Z</time>
      </trkpt>
      <trkpt lat="45.0484" lon="3.58354">
        <ele>539.4</ele>
        <time>2018-06-08T12:53:29Z</time>
      </trkpt>
      <trkpt lat="45.04831" lon="3.58349">
        <ele>539.7</ele>
        <time>2018-06-08T12:53:38Z</time>
      </trkpt>
      <trkpt lat="45.04822" lon="3.58344">
        <ele>539.8</ele>
        <time>2018-06-08T12:53:48Z</time>
      </trkpt>
      <trkpt lat="45.04812" lon="3.58339">
        <ele>540</ele>
        <time>2018-06-08T12:54:06Z</time>
      </trkpt>
      <trkpt lat="45.04804" lon="3.58333">
        <ele>540.1</ele>
        <time>2018-06-08T12:54:17Z</time>
      </trkpt>
      <trkpt lat="45.04795" lon="3.58327">
        <ele>540.2</ele>
        <time>2018-06-08T12:54:27Z</time>
      </trkpt>
      <trkpt lat="45.04787" lon="3.58321">
        <ele>540.2</ele>
        <time>2018-06-08T12:54:50Z</time>
      </trkpt>
      <trkpt lat="45.04779" lon="3.58314">
        <ele>540.2</ele>
        <time>2018-06-08T12:54:57Z</time>
      </trkpt>
      <trkpt lat="45.0477" lon="3.58308">
        <ele>540.4</ele>
        <time>2018-06-08T12:55:05Z</time>
      </trkpt>
      <trkpt lat="45.04761" lon="3.58303">
        <ele>540.5</ele>
        <time>2018-06-08T12:55:13Z</time>
      </trkpt>
      <trkpt lat="45.04751" lon="3.583">
        <ele>540.6</ele>
        <time>2018-06-08T12:55:22Z</time>
      </trkpt>
      <trkpt lat="45.04742" lon="3.58302">
        <ele>540.1</ele>
        <time>2018-06-08T12:55:32Z</time>
      </trkpt>
      <trkpt lat="45.04734" lon="3.58308">
        <ele>539.7</ele>
        <time>2018-06-08T12:55:42Z</time>
      </trkpt>
      <trkpt lat="45.04727" lon="3.58318">
        <ele>539.2</ele>
        <time>2018-06-08T12:55:51Z</time>
      </trkpt>
      <trkpt lat="45.04723" lon="3.58331">
        <ele>538.9</ele>
        <time>2018-06-08T12:55:59Z</time>
      </trkpt>
      <trkpt lat="45.0472" lon="3.58343">
        <ele>538.6</ele>
        <time>2018-06-08T12:56:08Z</time>
      </trkpt>
      <trkpt lat="45.04719" lon="3.58356">
        <ele>538.2</ele>
        <time>2018-06-08T12:56:18Z</time>
      </trkpt>
      <trkpt lat="45.04724" lon="3.58368">
        <ele>537.8</ele>
        <time>2018-06-08T12:56:28Z</time>
      </trkpt>
      <trkpt lat="45.04728" lon="3.58382">
        <ele>537.6</ele>
        <time>2018-06-08T12:56:35Z</time>
      </trkpt>
    </trkseg>
  </trk>
</gpx>